Observation data for Colorado City on 07/03/2020      Previous  Date  Next       Current Mesonet Observations  Soil Data  Daily Summary Page  Observations in Plain Language
KCO2 030500Z 14006KT 27/17 A3001 RMK A01 T02730166  RH  052%=      5-min Rain = 0
KCO2 030501Z 14007KT 27/17 A3001 RMK A01 T02730166  RH  052%=      5-min Rain = 0
KCO2 030502Z 13006KT 27/16 A3001 RMK A01 T02730164  RH  051%=      5-min Rain = 0
KCO2 030503Z 13007KT 27/16 A3001 RMK A01 T02740164  RH  051%=      5-min Rain = 0
KCO2 030504Z 13006KT 27/16 A3001 RMK A01 T02740164  RH  051%=      5-min Rain = 0
KCO2 030505Z 13006KT 28/17 A3002 RMK A01 T02750165  RH  051%=      5-min Rain = 0
KCO2 030506Z 13006KT 28/17 A3002 RMK A01 T02750165  RH  051%=      5-min Rain = 0
KCO2 030507Z 13006KT 27/17 A3002 RMK A01 T02740166  RH  052%=      5-min Rain = 0
KCO2 030508Z 13006KT 27/17 A3002 RMK A01 T02730165  RH  052%=      5-min Rain = 0
KCO2 030509Z 13005KT 27/17 A3002 RMK A01 T02730165  RH  052%=      5-min Rain = 0
KCO2 030510Z 13005KT 27/17 A3002 RMK A01 T02740166  RH  052%=      5-min Rain = 0
KCO2 030511Z 12005KT 27/17 A3002 RMK A01 T02730166  RH  052%=      5-min Rain = 0
KCO2 030512Z 12005KT 27/17 A3002 RMK A01 T02730166  RH  052%=      5-min Rain = 0
KCO2 030513Z 13005KT 27/17 A3002 RMK A01 T02710166  RH  052%=      5-min Rain = 0
KCO2 030514Z 12005KT 27/17 A3002 RMK A01 T02710166  RH  053%=      5-min Rain = 0
KCO2 030515Z 12005KT 27/17 A3002 RMK A01 T02700166  RH  053%=      5-min Rain = 0
KCO2 030516Z 12006KT 27/17 A3002 RMK A01 T02700167  RH  053%=      5-min Rain = 0
KCO2 030517Z 12006KT 27/17 A3002 RMK A01 T02690167  RH  054%=      5-min Rain = 0
KCO2 030518Z 13006KT 27/17 A3002 RMK A01 T02680167  RH  054%=      5-min Rain = 0
KCO2 030519Z 12006KT 27/17 A3002 RMK A01 T02670167  RH  054%=      5-min Rain = 0
KCO2 030520Z 13006KT 27/17 A3002 RMK A01 T02660167  RH  055%=      5-min Rain = 0
KCO2 030521Z 13006KT 27/17 A3002 RMK A01 T02650167  RH  055%=      5-min Rain = 0
KCO2 030522Z 13006KT 27/17 A3002 RMK A01 T02650167  RH  055%=      5-min Rain = 0
KCO2 030523Z 12006KT 26/17 A3002 RMK A01 T02640167  RH  055%=      5-min Rain = 0
KCO2 030524Z 12006KT 26/17 A3002 RMK A01 T02640167  RH  055%=      5-min Rain = 0
KCO2 030525Z 12006KT 26/17 A3002 RMK A01 T02630167  RH  055%=      5-min Rain = 0
KCO2 030526Z 12006KT 26/17 A3002 RMK A01 T02630167  RH  055%=      5-min Rain = 0
KCO2 030527Z 12006KT 26/17 A3002 RMK A01 T02630167  RH  056%=      5-min Rain = 0
KCO2 030528Z 12006KT 26/17 A3002 RMK A01 T02620167  RH  056%=      5-min Rain = 0
KCO2 030529Z 12006KT 26/17 A3002 RMK A01 T02620167  RH  056%=      5-min Rain = 0
KCO2 030530Z 12006KT 26/17 A3002 RMK A01 T02610168  RH  056%=      5-min Rain = 0
KCO2 030531Z 12006KT 26/17 A3002 RMK A01 T02610167  RH  056%=      5-min Rain = 0
KCO2 030532Z 12006KT 26/17 A3002 RMK A01 T02600167  RH  056%=      5-min Rain = 0
KCO2 030533Z 12006KT 26/17 A3002 RMK A01 T02600167  RH  056%=      5-min Rain = 0
KCO2 030534Z 12006KT 26/17 A3002 RMK A01 T02600167  RH  056%=      5-min Rain = 0
KCO2 030535Z 12006KT 26/17 A3002 RMK A01 T02600167  RH  057%=      5-min Rain = 0
KCO2 030536Z 12006KT 26/17 A3002 RMK A01 T02590167  RH  057%=      5-min Rain = 0
KCO2 030537Z 12006KT 26/17 A3002 RMK A01 T02590167  RH  057%=      5-min Rain = 0
KCO2 030538Z 12006KT 26/17 A3002 RMK A01 T02580167  RH  057%=      5-min Rain = 0
KCO2 030539Z 12006KT 26/17 A3002 RMK A01 T02580167  RH  057%=      5-min Rain = 0
KCO2 030540Z 13006KT 26/17 A3002 RMK A01 T02570167  RH  058%=      5-min Rain = 0
KCO2 030541Z 13006KT 26/17 A3002 RMK A01 T02570168  RH  058%=      5-min Rain = 0
KCO2 030542Z 13006KT 26/17 A3002 RMK A01 T02570168  RH  058%=      5-min Rain = 0
KCO2 030543Z 12006KT 26/17 A3002 RMK A01 T02570168  RH  058%=      5-min Rain = 0
KCO2 030544Z 12006KT 26/17 A3002 RMK A01 T02560168  RH  058%=      5-min Rain = 0
KCO2 030545Z 12006KT 26/17 A3002 RMK A01 T02560168  RH  058%=      5-min Rain = 0
KCO2 030546Z 12006KT 26/17 A3002 RMK A01 T02560168  RH  058%=      5-min Rain = 0
KCO2 030547Z 12006KT 26/17 A3002 RMK A01 T02560169  RH  059%=      5-min Rain = 0
KCO2 030548Z 13006KT 26/17 A3002 RMK A01 T02560169  RH  059%=      5-min Rain = 0
KCO2 030549Z 13006KT 26/17 A3002 RMK A01 T02560169  RH  059%=      5-min Rain = 0
KCO2 030550Z 13005KT 26/17 A3002 RMK A01 T02550169  RH  059%=      5-min Rain = 0
KCO2 030551Z 13005KT 26/17 A3002 RMK A01 T02550168  RH  059%=      5-min Rain = 0
KCO2 030552Z 13005KT 26/17 A3002 RMK A01 T02550169  RH  059%=      5-min Rain = 0
KCO2 030553Z 13005KT 26/17 A3002 RMK A01 T02550169  RH  059%=      5-min Rain = 0
KCO2 030554Z 13005KT 26/17 A3002 RMK A01 T02550169  RH  059%=      5-min Rain = 0
KCO2 030555Z 13004KT 26/17 A3002 RMK A01 T02550168  RH  059%=      5-min Rain = 0
KCO2 030556Z 14004KT 26/17 A3002 RMK A01 T02550168  RH  059%=      5-min Rain = 0
KCO2 030557Z 14004KT 26/17 A3002 RMK A01 T02550168  RH  059%=      5-min Rain = 0
KCO2 030558Z 14005KT 26/17 A3002 RMK A01 T02550168  RH  059%=      5-min Rain = 0
KCO2 030559Z 14005KT 26/17 A3002 RMK A01 T02550169  RH  059%=      5-min Rain = 0
KCO2 030600Z 14005KT 26/17 A3002 RMK A01 T02550169  RH  059%=      5-min Rain = 0
KCO2 030601Z 14005KT 26/17 A3002 RMK A01 T02550169  RH  059%=      5-min Rain = 0
KCO2 030602Z 14005KT 25/17 A3001 RMK A01 T02540170  RH  059%=      5-min Rain = 0
KCO2 030603Z 14005KT 25/17 A3001 RMK A01 T02540170  RH  060%=      5-min Rain = 0
KCO2 030604Z 14006KT 25/17 A3001 RMK A01 T02530170  RH  060%=      5-min Rain = 0
KCO2 030605Z 14006KT 25/17 A3001 RMK A01 T02520169  RH  060%=      5-min Rain = 0
KCO2 030606Z 14006KT 25/17 A3001 RMK A01 T02520170  RH  060%=      5-min Rain = 0
KCO2 030607Z 14006KT 25/17 A3001 RMK A01 T02520170  RH  060%=      5-min Rain = 0
KCO2 030608Z 14006KT 25/17 A3001 RMK A01 T02510170  RH  061%=      5-min Rain = 0
KCO2 030609Z 14006KT 25/17 A3001 RMK A01 T02510170  RH  061%=      5-min Rain = 0
KCO2 030610Z 14006KT 25/17 A3001 RMK A01 T02510170  RH  061%=      5-min Rain = 0
KCO2 030611Z 14007KT 25/17 A3001 RMK A01 T02510171  RH  061%=      5-min Rain = 0
KCO2 030612Z 14006KT 25/17 A3001 RMK A01 T02510171  RH  061%=      5-min Rain = 0
KCO2 030613Z 14006KT 25/17 A3001 RMK A01 T02510171  RH  061%=      5-min Rain = 0
KCO2 030614Z 14006KT 25/17 A3001 RMK A01 T02500171  RH  061%=      5-min Rain = 0
KCO2 030615Z 14007KT 25/17 A3001 RMK A01 T02500172  RH  062%=      5-min Rain = 0
KCO2 030616Z 14007KT 25/17 A3001 RMK A01 T02500172  RH  062%=      5-min Rain = 0
KCO2 030617Z 14006KT 25/17 A3001 RMK A01 T02500172  RH  062%=      5-min Rain = 0
KCO2 030618Z 14006KT 25/17 A3001 RMK A01 T02500173  RH  062%=      5-min Rain = 0
KCO2 030619Z 14006KT 25/17 A3001 RMK A01 T02490173  RH  062%=      5-min Rain = 0
KCO2 030620Z 14006KT 25/17 A3001 RMK A01 T02490173  RH  063%=      5-min Rain = 0
KCO2 030621Z 14006KT 25/17 A3001 RMK A01 T02490173  RH  063%=      5-min Rain = 0
KCO2 030622Z 14006KT 25/17 A3001 RMK A01 T02480173  RH  063%=      5-min Rain = 0
KCO2 030623Z 14005KT 25/17 A3001 RMK A01 T02480173  RH  063%=      5-min Rain = 0
KCO2 030624Z 14005KT 25/17 A3001 RMK A01 T02480174  RH  063%=      5-min Rain = 0
KCO2 030625Z 14005KT 25/17 A3001 RMK A01 T02470174  RH  064%=      5-min Rain = 0
KCO2 030626Z 14005KT 25/17 A3001 RMK A01 T02460173  RH  064%=      5-min Rain = 0
KCO2 030627Z 14005KT 25/17 A3001 RMK A01 T02460174  RH  064%=      5-min Rain = 0
KCO2 030628Z 14006KT 25/17 A3001 RMK A01 T02460174  RH  064%=      5-min Rain = 0
KCO2 030629Z 14006KT 25/17 A3001 RMK A01 T02460174  RH  064%=      5-min Rain = 0
KCO2 030630Z 14006KT 25/17 A3001 RMK A01 T02460174  RH  064%=      5-min Rain = 0
KCO2 030631Z 14006KT 25/17 A3001 RMK A01 T02460174  RH  064%=      5-min Rain = 0
KCO2 030632Z 13006KT 25/17 A3001 RMK A01 T02450174  RH  064%=      5-min Rain = 0
KCO2 030633Z 13006KT 25/17 A3001 RMK A01 T02450174  RH  064%=      5-min Rain = 0
KCO2 030634Z 14006KT 25/17 A3001 RMK A01 T02450174  RH  064%=      5-min Rain = 0
KCO2 030635Z 14006KT 25/17 A3001 RMK A01 T02450173  RH  064%=      5-min Rain = 0
KCO2 030636Z 14006KT 25/17 A3001 RMK A01 T02450174  RH  064%=      5-min Rain = 0
KCO2 030637Z 14006KT 25/17 A3001 RMK A01 T02450174  RH  065%=      5-min Rain = 0
KCO2 030638Z 14006KT 24/17 A3001 RMK A01 T02440174  RH  065%=      5-min Rain = 0
KCO2 030639Z 14006KT 24/17 A3001 RMK A01 T02430174  RH  065%=      5-min Rain = 0
KCO2 030640Z 14006KT 24/17 A3001 RMK A01 T02430174  RH  065%=      5-min Rain = 0
KCO2 030641Z 14007KT 24/17 A3001 RMK A01 T02420174  RH  066%=      5-min Rain = 0
KCO2 030642Z 14007KT 24/17 A3001 RMK A01 T02420174  RH  066%=      5-min Rain = 0
KCO2 030643Z 14007KT 24/17 A30 RMK A01 T02420174  RH  066%=      5-min Rain = 0
KCO2 030644Z 14007KT 24/17 A30 RMK A01 T02420174  RH  066%=      5-min Rain = 0
KCO2 030645Z 14007KT 24/17 A30 RMK A01 T02410174  RH  066%=      5-min Rain = 0
KCO2 030646Z 14006KT 24/17 A30 RMK A01 T02410174  RH  066%=      5-min Rain = 0
KCO2 030647Z 14006KT 24/17 A30 RMK A01 T02410174  RH  066%=      5-min Rain = 0
KCO2 030648Z 14006KT 24/17 A30 RMK A01 T02410174  RH  066%=      5-min Rain = 0
KCO2 030649Z 14006KT 24/17 A30 RMK A01 T02410174  RH  066%=      5-min Rain = 0
KCO2 030650Z 14005KT 24/17 A30 RMK A01 T02400174  RH  066%=      5-min Rain = 0
KCO2 030651Z 14005KT 24/17 A30 RMK A01 T02410174  RH  066%=      5-min Rain = 0
KCO2 030652Z 14005KT 24/17 A30 RMK A01 T02400173  RH  066%=      5-min Rain = 0
KCO2 030653Z 14005KT 24/17 A30 RMK A01 T02400173  RH  066%=      5-min Rain = 0
KCO2 030654Z 14005KT 24/17 A30 RMK A01 T02400173  RH  066%=      5-min Rain = 0
KCO2 030655Z 15005KT 24/17 A30 RMK A01 T02400173  RH  066%=      5-min Rain = 0
KCO2 030656Z 14005KT 24/17 A30 RMK A01 T02400172  RH  066%=      5-min Rain = 0
KCO2 030657Z 14005KT 24/17 A30 RMK A01 T02410171  RH  065%=      5-min Rain = 0
KCO2 030658Z 14005KT 24/17 A30 RMK A01 T02410171  RH  065%=      5-min Rain = 0
KCO2 030659Z 14005KT 24/17 A30 RMK A01 T02420171  RH  065%=      5-min Rain = 0
KCO2 030700Z 14006KT 24/17 A30 RMK A01 T02410171  RH  065%=      5-min Rain = 0
KCO2 030701Z 15006KT 24/17 A30 RMK A01 T02410170  RH  064%=      5-min Rain = 0
KCO2 030702Z 15006KT 24/17 A30 RMK A01 T02420169  RH  064%=      5-min Rain = 0
KCO2 030703Z 15006KT 24/17 A30 RMK A01 T02420169  RH  064%=      5-min Rain = 0
KCO2 030704Z 15005KT 24/17 A30 RMK A01 T02420169  RH  064%=      5-min Rain = 0
KCO2 030705Z 15005KT 24/17 A30 RMK A01 T02420169  RH  064%=      5-min Rain = 0
KCO2 030706Z 16005KT 24/17 A30 RMK A01 T02420168  RH  063%=      5-min Rain = 0
KCO2 030707Z 16005KT 24/17 A30 RMK A01 T02420168  RH  063%=      5-min Rain = 0
KCO2 030708Z 16005KT 24/17 A30 RMK A01 T02430168  RH  063%=      5-min Rain = 0
KCO2 030709Z 16005KT 24/17 A30 RMK A01 T02430168  RH  063%=      5-min Rain = 0
KCO2 030710Z 17005KT 24/17 A30 RMK A01 T02440168  RH  063%=      5-min Rain = 0
KCO2 030711Z 17005KT 24/17 A30 RMK A01 T02440168  RH  063%=      5-min Rain = 0
KCO2 030712Z 17005KT 24/17 A30 RMK A01 T02440168  RH  063%=      5-min Rain = 0
KCO2 030713Z 17004KT 24/17 A2999 RMK A01 T02440168  RH  063%=      5-min Rain = 0
KCO2 030714Z 17004KT 24/17 A2999 RMK A01 T02430168  RH  063%=      5-min Rain = 0
KCO2 030715Z 17004KT 24/17 A2999 RMK A01 T02430168  RH  063%=      5-min Rain = 0
KCO2 030716Z 17004KT 24/17 A2999 RMK A01 T02430168  RH  063%=      5-min Rain = 0
KCO2 030717Z 17004KT 24/17 A2999 RMK A01 T02430168  RH  063%=      5-min Rain = 0
KCO2 030718Z 17004KT 24/17 A2999 RMK A01 T02430169  RH  063%=      5-min Rain = 0
KCO2 030719Z 17004KT 24/17 A2999 RMK A01 T02420168  RH  063%=      5-min Rain = 0
KCO2 030720Z 17004KT 24/17 A2999 RMK A01 T02420169  RH  063%=      5-min Rain = 0
KCO2 030721Z 16004KT 24/17 A2999 RMK A01 T02420168  RH  063%=      5-min Rain = 0
KCO2 030722Z 16004KT 24/17 A2999 RMK A01 T02420168  RH  063%=      5-min Rain = 0
KCO2 030723Z 16004KT 24/17 A2999 RMK A01 T02420168  RH  063%=      5-min Rain = 0
KCO2 030724Z 15005KT 24/17 A2999 RMK A01 T02410168  RH  064%=      5-min Rain = 0
KCO2 030725Z 15005KT 24/17 A2999 RMK A01 T02400168  RH  064%=      5-min Rain = 0
KCO2 030726Z 14005KT 24/17 A2999 RMK A01 T02400168  RH  064%=      5-min Rain = 0
KCO2 030727Z 13004KT 24/17 A2999 RMK A01 T02390168  RH  064%=      5-min Rain = 0
KCO2 030728Z 12004KT 24/17 A2999 RMK A01 T02390168  RH  065%=      5-min Rain = 0
KCO2 030729Z 11004KT 24/17 A2999 RMK A01 T02380169  RH  065%=      5-min Rain = 0
KCO2 030730Z 10004KT 24/17 A2999 RMK A01 T02380170  RH  066%=      5-min Rain = 0
KCO2 030731Z 11005KT 24/17 A2999 RMK A01 T02370170  RH  066%=      5-min Rain = 0
KCO2 030732Z 12005KT 24/17 A2999 RMK A01 T02370170  RH  066%=      5-min Rain = 0
KCO2 030733Z 12005KT 24/17 A2999 RMK A01 T02360170  RH  067%=      5-min Rain = 0
KCO2 030734Z 12005KT 24/17 A2999 RMK A01 T02360170  RH  067%=      5-min Rain = 0
KCO2 030735Z 13005KT 24/17 A2999 RMK A01 T02360170  RH  066%=      5-min Rain = 0
KCO2 030736Z 13005KT 24/17 A2999 RMK A01 T02370170  RH  066%=      5-min Rain = 0
KCO2 030737Z 13005KT 24/17 A2999 RMK A01 T02370170  RH  066%=      5-min Rain = 0
KCO2 030738Z 13005KT 24/17 A2999 RMK A01 T02380170  RH  066%=      5-min Rain = 0
KCO2 030739Z 13005KT 24/17 A2999 RMK A01 T02380170  RH  066%=      5-min Rain = 0
KCO2 030740Z 14005KT 24/17 A2999 RMK A01 T02390170  RH  065%=      5-min Rain = 0
KCO2 030741Z 14005KT 24/17 A2999 RMK A01 T02390170  RH  065%=      5-min Rain = 0
KCO2 030742Z 14005KT 24/17 A2999 RMK A01 T02390171  RH  065%=      5-min Rain = 0
KCO2 030743Z 14005KT 24/17 A2999 RMK A01 T02390171  RH  066%=      5-min Rain = 0
KCO2 030744Z 14005KT 24/17 A2999 RMK A01 T02380171  RH  066%=      5-min Rain = 0
KCO2 030745Z 14005KT 24/17 A2999 RMK A01 T02370171  RH  067%=      5-min Rain = 0
KCO2 030746Z 14005KT 24/17 A2999 RMK A01 T02360171  RH  067%=      5-min Rain = 0
KCO2 030747Z 14005KT 24/17 A2999 RMK A01 T02360171  RH  067%=      5-min Rain = 0
KCO2 030748Z 14005KT 24/17 A2999 RMK A01 T02350171  RH  067%=      5-min Rain = 0
KCO2 030749Z 14005KT 24/17 A2999 RMK A01 T02350171  RH  067%=      5-min Rain = 0
KCO2 030750Z 13005KT 24/17 A2999 RMK A01 T02350171  RH  067%=      5-min Rain = 0
KCO2 030751Z 13005KT 24/17 A2999 RMK A01 T02350171  RH  067%=      5-min Rain = 0
KCO2 030752Z 12005KT 24/17 A2999 RMK A01 T02350170  RH  067%=      5-min Rain = 0
KCO2 030753Z 12006KT 24/17 A30 RMK A01 T02350170  RH  067%=      5-min Rain = 0
KCO2 030754Z 11006KT 24/17 A30 RMK A01 T02360170  RH  067%=      5-min Rain = 0
KCO2 030755Z 11006KT 24/17 A30 RMK A01 T02360170  RH  066%=      5-min Rain = 0
KCO2 030756Z 11006KT 24/17 A30 RMK A01 T02370170  RH  066%=      5-min Rain = 0
KCO2 030757Z 11006KT 24/17 A30 RMK A01 T02370170  RH  066%=      5-min Rain = 0
KCO2 030758Z 11006KT 24/17 A30 RMK A01 T02370170  RH  066%=      5-min Rain = 0
KCO2 030759Z 11006KT 24/17 A30 RMK A01 T02360170  RH  066%=      5-min Rain = 0
KCO2 030800Z 11006KT 24/17 A2999 RMK A01 T02360170  RH  066%=      5-min Rain = 0
KCO2 030801Z 11007KT 24/17 A2999 RMK A01 T02350170  RH  067%=      5-min Rain = 0
KCO2 030802Z 12007KT 24/17 A2999 RMK A01 T02350170  RH  067%=      5-min Rain = 0
KCO2 030803Z 12007KT 23/17 A2999 RMK A01 T02340170  RH  067%=      5-min Rain = 0
KCO2 030804Z 13007KT 23/17 A2999 RMK A01 T02330170  RH  068%=      5-min Rain = 0
KCO2 030805Z 13007KT 23/17 A2999 RMK A01 T02320170  RH  068%=      5-min Rain = 0
KCO2 030806Z 13006KT 23/17 A2999 RMK A01 T02320170  RH  068%=      5-min Rain = 0
KCO2 030807Z 14006KT 23/17 A2999 RMK A01 T02310170  RH  068%=      5-min Rain = 0
KCO2 030808Z 14006KT 23/17 A2999 RMK A01 T02300170  RH  069%=      5-min Rain = 0
KCO2 030809Z 14006KT 23/17 A2999 RMK A01 T02290170  RH  069%=      5-min Rain = 0
KCO2 030810Z 14006KT 23/17 A2999 RMK A01 T02290170  RH  069%=      5-min Rain = 0
KCO2 030811Z 14007KT 23/17 A2999 RMK A01 T02280170  RH  070%=      5-min Rain = 0
KCO2 030812Z 14007KT 23/17 A2999 RMK A01 T02280170  RH  070%=      5-min Rain = 0
KCO2 030813Z 13007KT 23/17 A2999 RMK A01 T02280170  RH  070%=      5-min Rain = 0
KCO2 030814Z 13007KT 23/17 A2999 RMK A01 T02280170  RH  070%=      5-min Rain = 0
KCO2 030815Z 13007KT 23/17 A2999 RMK A01 T02280170  RH  070%=      5-min Rain = 0
KCO2 030816Z 13007KT 23/17 A2999 RMK A01 T02280169  RH  070%=      5-min Rain = 0
KCO2 030817Z 13007KT 23/17 A2999 RMK A01 T02280169  RH  069%=      5-min Rain = 0
KCO2 030818Z 14006KT 23/17 A2999 RMK A01 T02280169  RH  069%=      5-min Rain = 0
KCO2 030819Z 14006KT 23/17 A2999 RMK A01 T02290169  RH  069%=      5-min Rain = 0
KCO2 030820Z 14006KT 23/17 A2999 RMK A01 T02290170  RH  069%=      5-min Rain = 0
KCO2 030821Z 15006KT 23/17 A2999 RMK A01 T02290170  RH  069%=      5-min Rain = 0
KCO2 030822Z 15006KT 23/17 A2998 RMK A01 T02290170  RH  069%=      5-min Rain = 0
KCO2 030823Z 15005KT 23/17 A2998 RMK A01 T02280170  RH  070%=      5-min Rain = 0
KCO2 030824Z 15006KT 23/17 A2998 RMK A01 T02280170  RH  070%=      5-min Rain = 0
KCO2 030825Z 15006KT 23/17 A2998 RMK A01 T02270170  RH  070%=      5-min Rain = 0
KCO2 030826Z 15006KT 23/17 A2998 RMK A01 T02260170  RH  070%=      5-min Rain = 0
KCO2 030827Z 15007KT 23/17 A2999 RMK A01 T02260170  RH  071%=      5-min Rain = 0
KCO2 030828Z 14006KT 23/17 A2999 RMK A01 T02250170  RH  071%=      5-min Rain = 0
KCO2 030829Z 14006KT 23/17 A2999 RMK A01 T02260170  RH  071%=      5-min Rain = 0
KCO2 030830Z 14006KT 23/17 A2999 RMK A01 T02260170  RH  070%=      5-min Rain = 0
KCO2 030831Z 14007KT 23/17 A2999 RMK A01 T02260170  RH  071%=      5-min Rain = 0
KCO2 030832Z 14007KT 23/17 A2999 RMK A01 T02260170  RH  071%=      5-min Rain = 0
KCO2 030833Z 14006KT 23/17 A2999 RMK A01 T02260170  RH  071%=      5-min Rain = 0
KCO2 030834Z 14006KT 23/17 A2999 RMK A01 T02270171  RH  071%=      5-min Rain = 0
KCO2 030835Z 14006KT 23/17 A2999 RMK A01 T02270171  RH  071%=      5-min Rain = 0
KCO2 030836Z 14006KT 23/17 A2999 RMK A01 T02260171  RH  071%=      5-min Rain = 0
KCO2 030837Z 14006KT 23/17 A2999 RMK A01 T02260171  RH  071%=      5-min Rain = 0
KCO2 030838Z 14006KT 23/17 A2999 RMK A01 T02250171  RH  071%=      5-min Rain = 0
KCO2 030839Z 14006KT 23/17 A2999 RMK A01 T02250171  RH  071%=      5-min Rain = 0
KCO2 030840Z 14006KT 23/17 A2999 RMK A01 T02250171  RH  071%=      5-min Rain = 0
KCO2 030841Z 14006KT 23/17 A2999 RMK A01 T02250172  RH  072%=      5-min Rain = 0
KCO2 030842Z 13007KT 23/17 A2999 RMK A01 T02250172  RH  072%=      5-min Rain = 0
KCO2 030843Z 13007KT 23/17 A30 RMK A01 T02250172  RH  072%=      5-min Rain = 0
KCO2 030844Z 13007KT 23/17 A30 RMK A01 T02260172  RH  071%=      5-min Rain = 0
KCO2 030845Z 13007KT 23/17 A30 RMK A01 T02260172  RH  071%=      5-min Rain = 0
KCO2 030846Z 13007KT 23/17 A30 RMK A01 T02270173  RH  071%=      5-min Rain = 0
KCO2 030847Z 13007KT 23/17 A30 RMK A01 T02270172  RH  071%=      5-min Rain = 0
KCO2 030848Z 13006KT 23/17 A30 RMK A01 T02270172  RH  071%=      5-min Rain = 0
KCO2 030849Z 13006KT 23/17 A30 RMK A01 T02270173  RH  071%=      5-min Rain = 0
KCO2 030850Z 13006KT 23/17 A30 RMK A01 T02270173  RH  072%=      5-min Rain = 0
KCO2 030851Z 13007KT 23/17 A30 RMK A01 T02260173  RH  072%=      5-min Rain = 0
KCO2 030852Z 13006KT 23/17 A30 RMK A01 T02260173  RH  072%=      5-min Rain = 0
KCO2 030853Z 14006KT 23/17 A30 RMK A01 T02250173  RH  072%=      5-min Rain = 0
KCO2 030854Z 14006KT 23/17 A30 RMK A01 T02250174  RH  073%=      5-min Rain = 0
KCO2 030855Z 14006KT 23/17 A30 RMK A01 T02250174  RH  073%=      5-min Rain = 0
KCO2 030856Z 14006KT 22/17 A30 RMK A01 T02240174  RH  073%=      5-min Rain = 0
KCO2 030857Z 14006KT 22/17 A30 RMK A01 T02240174  RH  073%=      5-min Rain = 0
KCO2 030858Z 14006KT 22/17 A30 RMK A01 T02240174  RH  073%=      5-min Rain = 0
KCO2 030859Z 14007KT 22/17 A30 RMK A01 T02240174  RH  074%=      5-min Rain = 0
KCO2 030900Z 14007KT 22/18 A30 RMK A01 T02240175  RH  074%=      5-min Rain = 0
KCO2 030901Z 14007KT 22/17 A30 RMK A01 T02240174  RH  074%=      5-min Rain = 0
KCO2 030902Z 14007KT 22/17 A30 RMK A01 T02240174  RH  073%=      5-min Rain = 0
KCO2 030903Z 14007KT 23/17 A30 RMK A01 T02260174  RH  073%=      5-min Rain = 0
KCO2 030904Z 14008KT 23/17 A30 RMK A01 T02260174  RH  072%=      5-min Rain = 0
KCO2 030905Z 14008KT 23/17 A30 RMK A01 T02270174  RH  072%=      5-min Rain = 0
KCO2 030906Z 14008KT 23/17 A30 RMK A01 T02280174  RH  072%=      5-min Rain = 0
KCO2 030907Z 14008KT 23/17 A30 RMK A01 T02290174  RH  071%=      5-min Rain = 0
KCO2 030908Z 14007KT 23/17 A30 RMK A01 T02290174  RH  071%=      5-min Rain = 0
KCO2 030909Z 14007KT 23/17 A30 RMK A01 T02300174  RH  070%=      5-min Rain = 0
KCO2 030910Z 15007KT 23/17 A30 RMK A01 T02310174  RH  070%=      5-min Rain = 0
KCO2 030911Z 15007KT 23/17 A30 RMK A01 T02320174  RH  070%=      5-min Rain = 0
KCO2 030912Z 15007KT 23/17 A30 RMK A01 T02320174  RH  070%=      5-min Rain = 0
KCO2 030913Z 15007KT 23/17 A30 RMK A01 T02330174  RH  069%=      5-min Rain = 0
KCO2 030914Z 15007KT 23/17 A30 RMK A01 T02330174  RH  069%=      5-min Rain = 0
KCO2 030915Z 15006KT 23/17 A30 RMK A01 T02330174  RH  070%=      5-min Rain = 0
KCO2 030916Z 15007KT 23/17 A3001 RMK A01 T02330174  RH  069%=      5-min Rain = 0
KCO2 030917Z 15007KT 23/17 A3001 RMK A01 T02330174  RH  069%=      5-min Rain = 0
KCO2 030918Z 15006KT 23/18 A3001 RMK A01 T02330175  RH  070%=      5-min Rain = 0
KCO2 030919Z 15006KT 23/18 A3001 RMK A01 T02330175  RH  070%=      5-min Rain = 0
KCO2 030920Z 15006KT 23/18 A3001 RMK A01 T02330175  RH  070%=      5-min Rain = 0
KCO2 030921Z 15007KT 23/18 A3001 RMK A01 T02330175  RH  070%=      5-min Rain = 0
KCO2 030922Z 15006KT 23/18 A3001 RMK A01 T02330175  RH  070%=      5-min Rain = 0
KCO2 030923Z 15006KT 23/18 A3001 RMK A01 T02330175  RH  070%=      5-min Rain = 0
KCO2 030924Z 14006KT 23/18 A3001 RMK A01 T02330176  RH  070%=      5-min Rain = 0
KCO2 030925Z 15005KT 23/18 A3001 RMK A01 T02330175  RH  070%=      5-min Rain = 0
KCO2 030926Z 15006KT 23/18 A3001 RMK A01 T02330176  RH  070%=      5-min Rain = 0
KCO2 030927Z 15006KT 23/18 A3001 RMK A01 T02330176  RH  070%=      5-min Rain = 0
KCO2 030928Z 15006KT 23/18 A3001 RMK A01 T02320176  RH  071%=      5-min Rain = 0
KCO2 030929Z 15005KT 23/18 A3001 RMK A01 T02320176  RH  071%=      5-min Rain = 0
KCO2 030930Z 15005KT 23/18 A3001 RMK A01 T02320176  RH  071%=      5-min Rain = 0
KCO2 030931Z 14005KT 23/18 A3001 RMK A01 T02320176  RH  071%=      5-min Rain = 0
KCO2 030932Z 14005KT 23/18 A3001 RMK A01 T02320176  RH  071%=      5-min Rain = 0
KCO2 030933Z 14006KT 23/18 A3002 RMK A01 T02320177  RH  071%=      5-min Rain = 0
KCO2 030934Z 14005KT 23/18 A3002 RMK A01 T02320176  RH  071%=      5-min Rain = 0
KCO2 030935Z 14005KT 23/18 A3002 RMK A01 T02320176  RH  071%=      5-min Rain = 0
KCO2 030936Z 13005KT 23/18 A3002 RMK A01 T02320176  RH  071%=      5-min Rain = 0
KCO2 030937Z 14005KT 23/18 A3002 RMK A01 T02320176  RH  071%=      5-min Rain = 0
KCO2 030938Z 13005KT 23/18 A3002 RMK A01 T02320177  RH  071%=      5-min Rain = 0
KCO2 030939Z 13005KT 23/18 A3002 RMK A01 T02320177  RH  071%=      5-min Rain = 0
KCO2 030940Z 13005KT 23/18 A3002 RMK A01 T02320177  RH  071%=      5-min Rain = 0
KCO2 030941Z 13005KT 23/18 A3002 RMK A01 T02320177  RH  071%=      5-min Rain = 0
KCO2 030942Z 14004KT 23/18 A3002 RMK A01 T02320178  RH  071%=      5-min Rain = 0
KCO2 030943Z 14004KT 23/18 A3002 RMK A01 T02320177  RH  071%=      5-min Rain = 0
KCO2 030944Z 14004KT 23/18 A3002 RMK A01 T02320177  RH  071%=      5-min Rain = 0
KCO2 030945Z 14004KT 23/18 A3002 RMK A01 T02320178  RH  072%=      5-min Rain = 0
KCO2 030946Z 14004KT 23/18 A3002 RMK A01 T02320178  RH  072%=      5-min Rain = 0
KCO2 030947Z 14004KT 23/18 A3002 RMK A01 T02320178  RH  072%=      5-min Rain = 0
KCO2 030948Z 14004KT 23/18 A3002 RMK A01 T02320178  RH  072%=      5-min Rain = 0
KCO2 030949Z 14004KT 23/18 A3002 RMK A01 T02320179  RH  072%=      5-min Rain = 0
KCO2 030950Z 14004KT 23/18 A3002 RMK A01 T02310179  RH  072%=      5-min Rain = 0
KCO2 030951Z 15005KT 23/18 A3002 RMK A01 T02310178  RH  072%=      5-min Rain = 0
KCO2 030952Z 14004KT 23/18 A3002 RMK A01 T02310179  RH  072%=      5-min Rain = 0
KCO2 030953Z 14004KT 23/18 A3002 RMK A01 T02310178  RH  072%=      5-min Rain = 0
KCO2 030954Z 15004KT 23/18 A3002 RMK A01 T02310178  RH  072%=      5-min Rain = 0
KCO2 030955Z 15004KT 23/18 A3002 RMK A01 T02310179  RH  072%=      5-min Rain = 0
KCO2 030956Z 15004KT 23/18 A3002 RMK A01 T02310179  RH  072%=      5-min Rain = 0
KCO2 030957Z 15005KT 23/18 A3002 RMK A01 T02310179  RH  072%=      5-min Rain = 0
KCO2 030958Z 15005KT 23/18 A3002 RMK A01 T02310179  RH  072%=      5-min Rain = 0
KCO2 030959Z 15004KT 23/18 A3002 RMK A01 T02310179  RH  072%=      5-min Rain = 0
KCO2 031000Z 16004KT 23/18 A3002 RMK A01 T02310179  RH  073%=      5-min Rain = 0
KCO2 031001Z 16005KT 23/18 A3002 RMK A01 T02310179  RH  072%=      5-min Rain = 0
KCO2 031002Z 15005KT 23/18 A3002 RMK A01 T02310179  RH  072%=      5-min Rain = 0
KCO2 031003Z 16005KT 23/18 A3002 RMK A01 T02320179  RH  072%=      5-min Rain = 0
KCO2 031004Z 17005KT 23/18 A3002 RMK A01 T02320179  RH  072%=      5-min Rain = 0
KCO2 031005Z 16005KT 23/18 A3002 RMK A01 T02320179  RH  072%=      5-min Rain = 0
KCO2 031006Z 17005KT 23/18 A3002 RMK A01 T02330180  RH  072%=      5-min Rain = 0
KCO2 031007Z 17005KT 23/18 A3002 RMK A01 T02330179  RH  072%=      5-min Rain = 0
KCO2 031008Z 17005KT 23/18 A3002 RMK A01 T02330179  RH  072%=      5-min Rain = 0
KCO2 031009Z 17005KT 23/18 A3002 RMK A01 T02330179  RH  071%=      5-min Rain = 0
KCO2 031010Z 17006KT 23/18 A3002 RMK A01 T02340179  RH  071%=      5-min Rain = 0
KCO2 031011Z 17005KT 23/18 A3002 RMK A01 T02340179  RH  071%=      5-min Rain = 0
KCO2 031012Z 17006KT 23/18 A3002 RMK A01 T02340179  RH  071%=      5-min Rain = 0
KCO2 031013Z 17006KT 23/18 A3002 RMK A01 T02340179  RH  071%=      5-min Rain = 0
KCO2 031014Z 17006KT 24/18 A3002 RMK A01 T02350180  RH  071%=      5-min Rain = 0
KCO2 031015Z 17005KT 24/18 A3002 RMK A01 T02350179  RH  071%=      5-min Rain = 0
KCO2 031016Z 17006KT 24/18 A3002 RMK A01 T02350179  RH  071%=      5-min Rain = 0
KCO2 031017Z 17006KT 24/18 A3002 RMK A01 T02360179  RH  070%=      5-min Rain = 0
KCO2 031018Z 17006KT 24/18 A3002 RMK A01 T02370179  RH  070%=      5-min Rain = 0
KCO2 031019Z 17006KT 24/18 A3002 RMK A01 T02370179  RH  070%=      5-min Rain = 0
KCO2 031020Z 17006KT 24/18 A3002 RMK A01 T02380179  RH  070%=      5-min Rain = 0
KCO2 031021Z 17006KT 24/18 A3002 RMK A01 T02380180  RH  070%=      5-min Rain = 0
KCO2 031022Z 18006KT 24/18 A3002 RMK A01 T02380180  RH  070%=      5-min Rain = 0
KCO2 031023Z 18006KT 24/18 A3002 RMK A01 T02380180  RH  070%=      5-min Rain = 0
KCO2 031024Z 17007KT 24/18 A3002 RMK A01 T02380180  RH  070%=      5-min Rain = 0
KCO2 031025Z 17007KT 24/18 A3002 RMK A01 T02380180  RH  070%=      5-min Rain = 0
KCO2 031026Z 18006KT 24/18 A3002 RMK A01 T02390180  RH  070%=      5-min Rain = 0
KCO2 031027Z 18006KT 24/18 A3002 RMK A01 T02390180  RH  070%=      5-min Rain = 0
KCO2 031028Z 18007KT 24/18 A3002 RMK A01 T02390180  RH  070%=      5-min Rain = 0
KCO2 031029Z 18006KT 24/18 A3002 RMK A01 T02390180  RH  070%=      5-min Rain = 0
KCO2 031030Z 18007KT 24/18 A3002 RMK A01 T02380180  RH  070%=      5-min Rain = 0
KCO2 031031Z 18007KT 24/18 A3002 RMK A01 T02380180  RH  070%=      5-min Rain = 0
KCO2 031032Z 18006KT 24/18 A3002 RMK A01 T02380180  RH  070%=      5-min Rain = 0
KCO2 031033Z 17006KT 24/18 A3002 RMK A01 T02370180  RH  070%=      5-min Rain = 0
KCO2 031034Z 18006KT 24/18 A3002 RMK A01 T02370180  RH  070%=      5-min Rain = 0
KCO2 031035Z 17006KT 24/18 A3002 RMK A01 T02370181  RH  071%=      5-min Rain = 0
KCO2 031036Z 17006KT 24/18 A3002 RMK A01 T02370181  RH  071%=      5-min Rain = 0
KCO2 031037Z 17006KT 24/18 A3002 RMK A01 T02370181  RH  071%=      5-min Rain = 0
KCO2 031038Z 17006KT 24/18 A3002 RMK A01 T02360181  RH  071%=      5-min Rain = 0
KCO2 031039Z 17006KT 24/18 A3002 RMK A01 T02360180  RH  071%=      5-min Rain = 0
KCO2 031040Z 17006KT 24/18 A3002 RMK A01 T02360181  RH  071%=      5-min Rain = 0
KCO2 031041Z 17006KT 24/18 A3002 RMK A01 T02360181  RH  071%=      5-min Rain = 0
KCO2 031042Z 17006KT 24/18 A3002 RMK A01 T02360181  RH  071%=      5-min Rain = 0
KCO2 031043Z 17006KT 24/18 A3002 RMK A01 T02360181  RH  071%=      5-min Rain = 0
KCO2 031044Z 17006KT 24/18 A3002 RMK A01 T02350181  RH  071%=      5-min Rain = 0
KCO2 031045Z 18006KT 24/18 A3002 RMK A01 T02350181  RH  072%=      5-min Rain = 0
KCO2 031046Z 17005KT 24/18 A3002 RMK A01 T02350181  RH  072%=      5-min Rain = 0
KCO2 031047Z 17005KT 23/18 A3002 RMK A01 T02340181  RH  072%=      5-min Rain = 0
KCO2 031048Z 17005KT 23/18 A3002 RMK A01 T02340181  RH  072%=      5-min Rain = 0
KCO2 031049Z 16005KT 23/18 A3002 RMK A01 T02340181  RH  072%=      5-min Rain = 0
KCO2 031050Z 16005KT 23/18 A3002 RMK A01 T02340181  RH  072%=      5-min Rain = 0
KCO2 031051Z 16005KT 23/18 A3002 RMK A01 T02330181  RH  073%=      5-min Rain = 0
KCO2 031052Z 15005KT 23/18 A3003 RMK A01 T02320181  RH  073%=      5-min Rain = 0
KCO2 031053Z 15006KT 23/18 A3003 RMK A01 T02320181  RH  073%=      5-min Rain = 0
KCO2 031054Z 15006KT 23/18 A3003 RMK A01 T02310181  RH  073%=      5-min Rain = 0
KCO2 031055Z 15006KT 23/18 A3003 RMK A01 T02310181  RH  074%=      5-min Rain = 0
KCO2 031056Z 15006KT 23/18 A3003 RMK A01 T02300181  RH  074%=      5-min Rain = 0
KCO2 031057Z 15005KT 23/18 A3003 RMK A01 T02300181  RH  074%=      5-min Rain = 0
KCO2 031058Z 15005KT 23/18 A3003 RMK A01 T02290181  RH  074%=      5-min Rain = 0
KCO2 031059Z 15005KT 23/18 A3003 RMK A01 T02290181  RH  075%=      5-min Rain = 0
KCO2 031100Z 14006KT 23/18 A3003 RMK A01 T02280182  RH  075%=      5-min Rain = 0
KCO2 031101Z 14006KT 23/18 A3003 RMK A01 T02270182  RH  075%=      5-min Rain = 0
KCO2 031102Z 14005KT 23/18 A3003 RMK A01 T02260181  RH  076%=      5-min Rain = 0
KCO2 031103Z 14005KT 23/18 A3003 RMK A01 T02250181  RH  076%=      5-min Rain = 0
KCO2 031104Z 14005KT 23/18 A3003 RMK A01 T02250181  RH  076%=      5-min Rain = 0
KCO2 031105Z 14005KT 22/18 A3003 RMK A01 T02240181  RH  077%=      5-min Rain = 0
KCO2 031106Z 13005KT 22/18 A3003 RMK A01 T02240181  RH  077%=      5-min Rain = 0
KCO2 031107Z 13005KT 22/18 A3003 RMK A01 T02240182  RH  077%=      5-min Rain = 0
KCO2 031108Z 13005KT 22/18 A3003 RMK A01 T02230182  RH  077%=      5-min Rain = 0
KCO2 031109Z 13005KT 22/18 A3003 RMK A01 T02220181  RH  078%=      5-min Rain = 0
KCO2 031110Z 13006KT 22/18 A3003 RMK A01 T02220182  RH  078%=      5-min Rain = 0
KCO2 031111Z 13006KT 22/18 A3003 RMK A01 T02220182  RH  078%=      5-min Rain = 0
KCO2 031112Z 13006KT 22/18 A3003 RMK A01 T02230182  RH  078%=      5-min Rain = 0
KCO2 031113Z 13006KT 22/18 A3003 RMK A01 T02240183  RH  077%=      5-min Rain = 0
KCO2 031114Z 13006KT 23/18 A3003 RMK A01 T02250183  RH  077%=      5-min Rain = 0
KCO2 031115Z 13007KT 23/18 A3003 RMK A01 T02250182  RH  077%=      5-min Rain = 0
KCO2 031116Z 13007KT 23/18 A3003 RMK A01 T02250183  RH  077%=      5-min Rain = 0
KCO2 031117Z 13007KT 23/18 A3003 RMK A01 T02250183  RH  077%=      5-min Rain = 0
KCO2 031118Z 13007KT 23/18 A3003 RMK A01 T02250182  RH  077%=      5-min Rain = 0
KCO2 031119Z 13006KT 22/18 A3003 RMK A01 T02240182  RH  077%=      5-min Rain = 0
KCO2 031120Z 13006KT 22/18 A3003 RMK A01 T02240182  RH  077%=      5-min Rain = 0
KCO2 031121Z 14006KT 22/18 A3003 RMK A01 T02230182  RH  078%=      5-min Rain = 0
KCO2 031122Z 14007KT 22/18 A3003 RMK A01 T02230182  RH  078%=      5-min Rain = 0
KCO2 031123Z 14007KT 22/18 A3003 RMK A01 T02220183  RH  078%=      5-min Rain = 0
KCO2 031124Z 14007KT 22/18 A3003 RMK A01 T02220183  RH  078%=      5-min Rain = 0
KCO2 031125Z 14007KT 22/18 A3003 RMK A01 T02220183  RH  079%=      5-min Rain = 0
KCO2 031126Z 14006KT 22/18 A3003 RMK A01 T02210183  RH  079%=      5-min Rain = 0
KCO2 031127Z 13006KT 22/18 A3003 RMK A01 T02210183  RH  079%=      5-min Rain = 0
KCO2 031128Z 13006KT 22/18 A3004 RMK A01 T02200182  RH  079%=      5-min Rain = 0
KCO2 031129Z 13006KT 22/18 A3004 RMK A01 T02200183  RH  079%=      5-min Rain = 0
KCO2 031130Z 13007KT 22/18 A3004 RMK A01 T02190183  RH  080%=      5-min Rain = 0
KCO2 031131Z 13007KT 22/18 A3004 RMK A01 T02190183  RH  080%=      5-min Rain = 0
KCO2 031132Z 13006KT 22/18 A3004 RMK A01 T02180183  RH  080%=      5-min Rain = 0
KCO2 031133Z 13006KT 22/18 A3004 RMK A01 T02190183  RH  080%=      5-min Rain = 0
KCO2 031134Z 13006KT 22/18 A3004 RMK A01 T02180183  RH  080%=      5-min Rain = 0
KCO2 031135Z 13006KT 22/18 A3004 RMK A01 T02180183  RH  081%=      5-min Rain = 0
KCO2 031136Z 13006KT 22/18 A3004 RMK A01 T02170183  RH  081%=      5-min Rain = 0
KCO2 031137Z 13006KT 22/18 A3004 RMK A01 T02160183  RH  081%=      5-min Rain = 0
KCO2 031138Z 13006KT 22/18 A3004 RMK A01 T02160183  RH  081%=      5-min Rain = 0
KCO2 031139Z 13006KT 22/18 A3004 RMK A01 T02150183  RH  082%=      5-min Rain = 0
KCO2 031140Z 13006KT 22/18 A3004 RMK A01 T02150183  RH  082%=      5-min Rain = 0
KCO2 031141Z 13006KT 22/18 A3004 RMK A01 T02150183  RH  082%=      5-min Rain = 0
KCO2 031142Z 13006KT 22/18 A3004 RMK A01 T02150183  RH  082%=      5-min Rain = 0
KCO2 031143Z 13005KT 22/18 A3004 RMK A01 T02150183  RH  082%=      5-min Rain = 0
KCO2 031144Z 13005KT 22/18 A3004 RMK A01 T02150183  RH  082%=      5-min Rain = 0
KCO2 031145Z 13005KT 22/18 A3004 RMK A01 T02150183  RH  082%=      5-min Rain = 0
KCO2 031146Z 13005KT 21/18 A3004 RMK A01 T02140183  RH  082%=      5-min Rain = 0
KCO2 031147Z 13006KT 21/18 A3004 RMK A01 T02140183  RH  082%=      5-min Rain = 0
KCO2 031148Z 13006KT 21/18 A3004 RMK A01 T02140183  RH  082%=      5-min Rain = 0
KCO2 031149Z 12006KT 21/18 A3004 RMK A01 T02140183  RH  083%=      5-min Rain = 0
KCO2 031150Z 11005KT 21/18 A3004 RMK A01 T02140183  RH  083%=      5-min Rain = 0
KCO2 031151Z 11005KT 21/18 A3004 RMK A01 T02130184  RH  083%=      5-min Rain = 0
KCO2 031152Z 10005KT 21/18 A3004 RMK A01 T02140184  RH  083%=      5-min Rain = 0
KCO2 031153Z 10005KT 21/18 A3004 RMK A01 T02140184  RH  083%=      5-min Rain = 0
KCO2 031154Z 10005KT 21/18 A3004 RMK A01 T02140184  RH  083%=      5-min Rain = 0
KCO2 031155Z 10005KT 21/18 A3005 RMK A01 T02140184  RH  083%=      5-min Rain = 0
KCO2 031156Z 10005KT 21/18 A3005 RMK A01 T02140183  RH  083%=      5-min Rain = 0
KCO2 031157Z 10005KT 22/18 A3005 RMK A01 T02150183  RH  082%=      5-min Rain = 0
KCO2 031158Z 10005KT 22/18 A3005 RMK A01 T02150184  RH  082%=      5-min Rain = 0
KCO2 031159Z 11005KT 22/18 A3005 RMK A01 T02150184  RH  082%=      5-min Rain = 0
KCO2 031200Z 10005KT 22/18 A3004 RMK A01 T02150184  RH  082%=      5-min Rain = 0
KCO2 031201Z 10005KT 22/18 A3004 RMK A01 T02160184  RH  082%=      5-min Rain = 0
KCO2 031202Z 10005KT 22/18 A3004 RMK A01 T02160184  RH  082%=      5-min Rain = 0
KCO2 031203Z 11005KT 22/18 A3004 RMK A01 T02170184  RH  082%=      5-min Rain = 0
KCO2 031204Z 11006KT 22/18 A3004 RMK A01 T02170184  RH  081%=      5-min Rain = 0
KCO2 031205Z 10006KT 22/18 A3004 RMK A01 T02170184  RH  081%=      5-min Rain = 0
KCO2 031206Z 10006KT 22/18 A3005 RMK A01 T02180184  RH  081%=      5-min Rain = 0
KCO2 031207Z 10007KT 22/18 A3005 RMK A01 T02180184  RH  081%=      5-min Rain = 0
KCO2 031208Z 10007KT 22/19 A3005 RMK A01 T02190185  RH  081%=      5-min Rain = 0
KCO2 031209Z 10007KT 22/19 A3005 RMK A01 T02190185  RH  081%=      5-min Rain = 0
KCO2 031210Z 10007KT 22/19 A3005 RMK A01 T02200185  RH  081%=      5-min Rain = 0
KCO2 031211Z 10006KT 22/19 A3005 RMK A01 T02200185  RH  081%=      5-min Rain = 0
KCO2 031212Z 10006KT 22/19 A3005 RMK A01 T02200185  RH  080%=      5-min Rain = 0
KCO2 031213Z 10006KT 22/19 A3005 RMK A01 T02210185  RH  080%=      5-min Rain = 0
KCO2 031214Z 10006KT 22/19 A3005 RMK A01 T02210186  RH  080%=      5-min Rain = 0
KCO2 031215Z 11006KT 22/19 A3005 RMK A01 T02210186  RH  080%=      5-min Rain = 0
KCO2 031216Z 11006KT 22/19 A3005 RMK A01 T02220186  RH  080%=      5-min Rain = 0
KCO2 031217Z 11006KT 22/19 A3005 RMK A01 T02220186  RH  080%=      5-min Rain = 0
KCO2 031218Z 11006KT 22/19 A3005 RMK A01 T02220186  RH  080%=      5-min Rain = 0
KCO2 031219Z 11006KT 22/19 A3005 RMK A01 T02220186  RH  080%=      5-min Rain = 0
KCO2 031220Z 11006KT 22/19 A3005 RMK A01 T02220187  RH  080%=      5-min Rain = 0
KCO2 031221Z 11006KT 22/19 A3005 RMK A01 T02220187  RH  081%=      5-min Rain = 0
KCO2 031222Z 11006KT 22/19 A3005 RMK A01 T02220187  RH  081%=      5-min Rain = 0
KCO2 031223Z 11005KT 22/19 A3005 RMK A01 T02220187  RH  081%=      5-min Rain = 0
KCO2 031224Z 12005KT 22/19 A3005 RMK A01 T02220187  RH  081%=      5-min Rain = 0
KCO2 031225Z 12005KT 22/19 A3005 RMK A01 T02230188  RH  081%=      5-min Rain = 0
KCO2 031226Z 13004KT 22/19 A3005 RMK A01 T02230188  RH  081%=      5-min Rain = 0
KCO2 031227Z 13004KT 22/19 A3005 RMK A01 T02240189  RH  080%=      5-min Rain = 0
KCO2 031228Z 13004KT 22/19 A3005 RMK A01 T02240189  RH  080%=      5-min Rain = 0
KCO2 031229Z 13004KT 23/19 A3005 RMK A01 T02250189  RH  080%=      5-min Rain = 0
KCO2 031230Z 13004KT 23/19 A3006 RMK A01 T02260189  RH  080%=      5-min Rain = 0
KCO2 031231Z 13004KT 23/19 A3006 RMK A01 T02270190  RH  080%=      5-min Rain = 0
KCO2 031232Z 12004KT 23/19 A3006 RMK A01 T02270190  RH  080%=      5-min Rain = 0
KCO2 031233Z 12004KT 23/19 A3006 RMK A01 T02280191  RH  079%=      5-min Rain = 0
KCO2 031234Z 13004KT 23/19 A3006 RMK A01 T02290191  RH  079%=      5-min Rain = 0
KCO2 031235Z 13004KT 23/19 A3006 RMK A01 T02300191  RH  079%=      5-min Rain = 0
KCO2 031236Z 13004KT 23/19 A3006 RMK A01 T02310191  RH  079%=      5-min Rain = 0
KCO2 031237Z 13005KT 23/19 A3006 RMK A01 T02310192  RH  078%=      5-min Rain = 0
KCO2 031238Z 13005KT 23/19 A3006 RMK A01 T02320192  RH  078%=      5-min Rain = 0
KCO2 031239Z 13005KT 23/19 A3006 RMK A01 T02330192  RH  078%=      5-min Rain = 0
KCO2 031240Z 13005KT 23/19 A3006 RMK A01 T02330193  RH  078%=      5-min Rain = 0
KCO2 031241Z 13005KT 23/19 A3006 RMK A01 T02340193  RH  078%=      5-min Rain = 0
KCO2 031242Z 13005KT 24/19 A3006 RMK A01 T02350193  RH  078%=      5-min Rain = 0
KCO2 031243Z 13005KT 24/19 A3006 RMK A01 T02350194  RH  077%=      5-min Rain = 0
KCO2 031244Z 14004KT 24/19 A3006 RMK A01 T02360194  RH  077%=      5-min Rain = 0
KCO2 031245Z 13005KT 24/19 A3006 RMK A01 T02370194  RH  077%=      5-min Rain = 0
KCO2 031246Z 13004KT 24/20 A3006 RMK A01 T02380195  RH  077%=      5-min Rain = 0
KCO2 031247Z 14004KT 24/20 A3006 RMK A01 T02390195  RH  076%=      5-min Rain = 0
KCO2 031248Z 14004KT 24/20 A3006 RMK A01 T02390195  RH  076%=      5-min Rain = 0
KCO2 031249Z 14004KT 24/20 A3006 RMK A01 T02400195  RH  076%=      5-min Rain = 0
KCO2 031250Z 14004KT 24/20 A3006 RMK A01 T02410196  RH  076%=      5-min Rain = 0
KCO2 031251Z 14005KT 24/20 A3006 RMK A01 T02410195  RH  075%=      5-min Rain = 0
KCO2 031252Z 15004KT 24/20 A3006 RMK A01 T02420195  RH  075%=      5-min Rain = 0
KCO2 031253Z 15005KT 24/20 A3006 RMK A01 T02420196  RH  075%=      5-min Rain = 0
KCO2 031254Z 15005KT 24/20 A3006 RMK A01 T02430196  RH  075%=      5-min Rain = 0
KCO2 031255Z 15006KT 24/20 A3006 RMK A01 T02430197  RH  075%=      5-min Rain = 0
KCO2 031256Z 14004KT 24/20 A3006 RMK A01 T02440197  RH  075%=      5-min Rain = 0
KCO2 031257Z 14005KT 24/20 A3006 RMK A01 T02440197  RH  075%=      5-min Rain = 0
KCO2 031258Z 15005KT 25/20 A3006 RMK A01 T02450197  RH  074%=      5-min Rain = 0
KCO2 031259Z 14005KT 25/20 A3006 RMK A01 T02460197  RH  074%=      5-min Rain = 0
KCO2 031300Z 15005KT 25/20 A3006 RMK A01 T02460198  RH  074%=      5-min Rain = 0
KCO2 031301Z 15007KT 25/20 A3006 RMK A01 T02470198  RH  074%=      5-min Rain = 0
KCO2 031302Z 15007KT 25/20 A3006 RMK A01 T02480196  RH  073%=      5-min Rain = 0
KCO2 031303Z 16006KT 25/20 A3006 RMK A01 T02480196  RH  073%=      5-min Rain = 0
KCO2 031304Z 16007KT 25/20 A3006 RMK A01 T02490198  RH  073%=      5-min Rain = 0
KCO2 031305Z 16007KT 25/20 A3006 RMK A01 T02490197  RH  073%=      5-min Rain = 0
KCO2 031306Z 15006KT 25/20 A3006 RMK A01 T02490198  RH  073%=      5-min Rain = 0
KCO2 031307Z 16006KT 25/20 A3006 RMK A01 T02500198  RH  073%=      5-min Rain = 0
KCO2 031308Z 16007KT 25/20 A3006 RMK A01 T02490197  RH  073%=      5-min Rain = 0
KCO2 031309Z 16007KT 25/20 A3006 RMK A01 T02500198  RH  073%=      5-min Rain = 0
KCO2 031310Z 16006KT 25/20 A3006 RMK A01 T02510199  RH  073%=      5-min Rain = 0
KCO2 031311Z 15006KT 25/20 A3006 RMK A01 T02510198  RH  072%=      5-min Rain = 0
KCO2 031312Z 16007KT 25/20 A3006 RMK A01 T02510198  RH  072%=      5-min Rain = 0
KCO2 031313Z 16006KT 25/20 A3006 RMK A01 T02520198  RH  072%=      5-min Rain = 0
KCO2 031314Z 16006KT 25/20 A3006 RMK A01 T02520199  RH  072%=      5-min Rain = 0
KCO2 031315Z 16006KT 25/20 A3006 RMK A01 T02520198  RH  072%=      5-min Rain = 0
KCO2 031316Z 16006KT 25/20 A3006 RMK A01 T02530200  RH  072%=      5-min Rain = 0
KCO2 031317Z 15006KT 25/20 A3006 RMK A01 T02540201  RH  072%=      5-min Rain = 0
KCO2 031318Z 15006KT 25/20 A3006 RMK A01 T02540199  RH  072%=      5-min Rain = 0
KCO2 031319Z 15006KT 25/20 A3006 RMK A01 T02540201  RH  072%=      5-min Rain = 0
KCO2 031320Z 15006KT 26/20 A3006 RMK A01 T02550200  RH  071%=      5-min Rain = 0
KCO2 031321Z 16006KT 26/20 A3006 RMK A01 T02550199  RH  071%=      5-min Rain = 0
KCO2 031322Z 16006KT 26/20 A3006 RMK A01 T02550200  RH  071%=      5-min Rain = 0
KCO2 031323Z 15006KT 26/20 A3006 RMK A01 T02550200  RH  072%=      5-min Rain = 0
KCO2 031324Z 15005KT 26/20 A3006 RMK A01 T02550201  RH  072%=      5-min Rain = 0
KCO2 031325Z 15004KT 26/20 A3006 RMK A01 T02560203  RH  072%=      5-min Rain = 0
KCO2 031326Z 16005KT 26/20 A3006 RMK A01 T02580204  RH  072%=      5-min Rain = 0
KCO2 031327Z 17006KT 26/20 A3006 RMK A01 T02590202  RH  071%=      5-min Rain = 0
KCO2 031328Z 17006KT 26/20 A3006 RMK A01 T02590202  RH  071%=      5-min Rain = 0
KCO2 031329Z 16005KT 26/20 A3006 RMK A01 T02590202  RH  071%=      5-min Rain = 0
KCO2 031330Z 16006KT 26/20 A3006 RMK A01 T02600203  RH  071%=      5-min Rain = 0
KCO2 031331Z 17006KT 26/20 A3006 RMK A01 T02600203  RH  071%=      5-min Rain = 0
KCO2 031332Z 15005KT 26/20 A3007 RMK A01 T02610204  RH  071%=      5-min Rain = 0
KCO2 031333Z 16005KT 26/21 A3007 RMK A01 T02620205  RH  071%=      5-min Rain = 0
KCO2 031334Z 16006KT 26/21 A3007 RMK A01 T02630206  RH  071%=      5-min Rain = 0
KCO2 031335Z 17006KT 26/21 A3007 RMK A01 T02640205  RH  070%=      5-min Rain = 0
KCO2 031336Z 17007KT 26/21 A3007 RMK A01 T02640205  RH  070%=      5-min Rain = 0
KCO2 031337Z 16008KT 26/20 A3007 RMK A01 T02640204  RH  069%=      5-min Rain = 0
KCO2 031338Z 17006KT 26/21 A3007 RMK A01 T02640205  RH  070%=      5-min Rain = 0
KCO2 031339Z 16006KT 26/21 A3007 RMK A01 T02630206  RH  070%=      5-min Rain = 0
KCO2 031340Z 17008KT 27/21 A3007 RMK A01 T02650207  RH  070%=      5-min Rain = 0
KCO2 031341Z 18009KT 27/21 A3007 RMK A01 T02650206  RH  070%=      5-min Rain = 0
KCO2 031342Z 17009KT 27/21 A3007 RMK A01 T02650205  RH  070%=      5-min Rain = 0
KCO2 031343Z 19006KT 27/21 A3007 RMK A01 T02650206  RH  070%=      5-min Rain = 0
KCO2 031344Z 17007KT 27/21 A3007 RMK A01 T02660207  RH  070%=      5-min Rain = 0
KCO2 031345Z 16008KT 27/21 A3007 RMK A01 T02670207  RH  070%=      5-min Rain = 0
KCO2 031346Z 17009KT 27/21 A3006 RMK A01 T02680206  RH  069%=      5-min Rain = 0
KCO2 031347Z 18009KT 27/21 A3007 RMK A01 T02670207  RH  070%=      5-min Rain = 0
KCO2 031348Z 17009KT 27/21 A3007 RMK A01 T02670207  RH  070%=      5-min Rain = 0
KCO2 031349Z 18009KT 27/21 A3007 RMK A01 T02670207  RH  069%=      5-min Rain = 0
KCO2 031350Z 17009KT 27/21 A3007 RMK A01 T02670207  RH  070%=      5-min Rain = 0
KCO2 031351Z 19008KT 27/21 A3007 RMK A01 T02680208  RH  070%=      5-min Rain = 0
KCO2 031352Z 19008KT 27/21 A3007 RMK A01 T02690209  RH  070%=      5-min Rain = 0
KCO2 031353Z 19006KT 27/21 A3007 RMK A01 T02700209  RH  070%=      5-min Rain = 0
KCO2 031354Z 17009KT 27/21 A3007 RMK A01 T02720211  RH  069%=      5-min Rain = 0
KCO2 031355Z 17009KT 27/21 A3007 RMK A01 T02730210  RH  068%=      5-min Rain = 0
KCO2 031356Z 17010KT 27/21 A3007 RMK A01 T02720209  RH  068%=      5-min Rain = 0
KCO2 031357Z 18009KT 27/21 A3007 RMK A01 T02720209  RH  068%=      5-min Rain = 0
KCO2 031358Z 17007KT 27/21 A3007 RMK A01 T02710208  RH  069%=      5-min Rain = 0
KCO2 031359Z 19009KT 27/21 A3007 RMK A01 T02700210  RH  070%=      5-min Rain = 0
KCO2 031400Z 20009KT 27/21 A3007 RMK A01 T02720209  RH  068%=      5-min Rain = 0
KCO2 031401Z 20010KT 27/21 A3007 RMK A01 T02720208  RH  068%=      5-min Rain = 0
KCO2 031402Z 21010KT 27/21 A3007 RMK A01 T02720209  RH  068%=      5-min Rain = 0
KCO2 031403Z 20009KT 27/21 A3007 RMK A01 T02720209  RH  069%=      5-min Rain = 0
KCO2 031404Z 20007KT 27/21 A3007 RMK A01 T02720208  RH  068%=      5-min Rain = 0
KCO2 031405Z 21008KT 27/21 A3007 RMK A01 T02720209  RH  068%=      5-min Rain = 0
KCO2 031406Z 19008KT 27/21 A3007 RMK A01 T02730209  RH  068%=      5-min Rain = 0
KCO2 031407Z 19008KT 27/21 A3007 RMK A01 T02730210  RH  068%=      5-min Rain = 0
KCO2 031408Z 20008KT 27/21 A3007 RMK A01 T02740210  RH  068%=      5-min Rain = 0
KCO2 031409Z 18009KT 27/21 A3007 RMK A01 T02740209  RH  068%=      5-min Rain = 0
KCO2 031410Z 18008KT 28/21 A3007 RMK A01 T02750209  RH  068%=      5-min Rain = 0
KCO2 031411Z 19009KT 27/21 A3007 RMK A01 T02740210  RH  068%=      5-min Rain = 0
KCO2 031412Z 18007KT 27/21 A3007 RMK A01 T02740210  RH  068%=      5-min Rain = 0
KCO2 031413Z 19009KT 27/21 A3007 RMK A01 T02740210  RH  068%=      5-min Rain = 0
KCO2 031414Z 20009KT 28/21 A3007 RMK A01 T02750210  RH  067%=      5-min Rain = 0
KCO2 031415Z 19007KT 28/21 A3007 RMK A01 T02750209  RH  067%=      5-min Rain = 0
KCO2 031416Z 20008KT 27/21 A3007 RMK A01 T02740210  RH  068%=      5-min Rain = 0
KCO2 031417Z 18007KT 27/21 A3008 RMK A01 T02740211  RH  068%=      5-min Rain = 0
KCO2 031418Z 18009KT 28/21 A3008 RMK A01 T02770211  RH  068%=      5-min Rain = 0
KCO2 031419Z 19009KT 28/21 A3008 RMK A01 T02770210  RH  067%=      5-min Rain = 0
KCO2 031420Z 19009KT 28/21 A3008 RMK A01 T02760210  RH  067%=      5-min Rain = 0
KCO2 031421Z 19008KT 28/21 A3008 RMK A01 T02750209  RH  067%=      5-min Rain = 0
KCO2 031422Z 18008KT 28/21 A3008 RMK A01 T02750211  RH  068%=      5-min Rain = 0
KCO2 031423Z 19009KT 28/21 A3008 RMK A01 T02760211  RH  068%=      5-min Rain = 0
KCO2 031424Z 18009KT 28/21 A3008 RMK A01 T02760210  RH  067%=      5-min Rain = 0
KCO2 031425Z 17009KT 28/21 A3008 RMK A01 T02760211  RH  068%=      5-min Rain = 0
KCO2 031426Z 19010KT 28/21 A3008 RMK A01 T02770211  RH  067%=      5-min Rain = 0
KCO2 031427Z 19006KT 28/21 A3008 RMK A01 T02790211  RH  067%=      5-min Rain = 0
KCO2 031428Z 19008KT 28/21 A3008 RMK A01 T02790212  RH  067%=      5-min Rain = 0
KCO2 031429Z 18010KT 28/21 A3008 RMK A01 T02790210  RH  066%=      5-min Rain = 0
KCO2 031430Z 18007KT 28/21 A3008 RMK A01 T02790210  RH  066%=      5-min Rain = 0
KCO2 031431Z 19007KT 28/21 A3008 RMK A01 T02780212  RH  068%=      5-min Rain = 0
KCO2 031432Z 18008KT 28/21 A3008 RMK A01 T02800212  RH  067%=      5-min Rain = 0
KCO2 031433Z 17008KT 28/21 A3008 RMK A01 T02800211  RH  066%=      5-min Rain = 0
KCO2 031434Z 18008KT 28/21 A3008 RMK A01 T02810212  RH  066%=      5-min Rain = 0
KCO2 031435Z 18006KT 28/21 A3008 RMK A01 T02800212  RH  067%=      5-min Rain = 0
KCO2 031436Z 18007KT 28/21 A3008 RMK A01 T02810212  RH  066%=      5-min Rain = 0
KCO2 031437Z 18007KT 28/21 A3008 RMK A01 T02820212  RH  066%=      5-min Rain = 0
KCO2 031438Z 19006KT 28/21 A3008 RMK A01 T02820212  RH  066%=      5-min Rain = 0
KCO2 031439Z 18008KT 28/21 A3008 RMK A01 T02830213  RH  066%=      5-min Rain = 0
KCO2 031440Z 19006KT 28/21 A3008 RMK A01 T02840214  RH  066%=      5-min Rain = 0
KCO2 031441Z 20008KT 29/21 A3008 RMK A01 T02860214  RH  065%=      5-min Rain = 0
KCO2 031442Z 19008KT 29/21 A3008 RMK A01 T02870213  RH  064%=      5-min Rain = 0
KCO2 031443Z 18008KT 29/21 A3008 RMK A01 T02880213  RH  064%=      5-min Rain = 0
KCO2 031444Z 19007KT 29/21 A3008 RMK A01 T02880213  RH  064%=      5-min Rain = 0
KCO2 031445Z 19007KT 29/21 A3008 RMK A01 T02880213  RH  064%=      5-min Rain = 0
KCO2 031446Z 19009KT 29/21 A3008 RMK A01 T02890214  RH  064%=      5-min Rain = 0
KCO2 031447Z 19008KT 29/21 A3008 RMK A01 T02900212  RH  063%=      5-min Rain = 0
KCO2 031448Z 18007KT 29/21 A3008 RMK A01 T02900212  RH  063%=      5-min Rain = 0
KCO2 031449Z 19006KT 29/21 A3008 RMK A01 T02890212  RH  063%=      5-min Rain = 0
KCO2 031450Z 19005KT 29/21 A3008 RMK A01 T02890213  RH  064%=      5-min Rain = 0
KCO2 031451Z 17010KT 29/21 A3008 RMK A01 T02890212  RH  063%=      5-min Rain = 0
KCO2 031452Z 17009KT 29/21 A3008 RMK A01 T02900212  RH  063%=      5-min Rain = 0
KCO2 031453Z 18010KT 29/21 A3008 RMK A01 T02910212  RH  063%=      5-min Rain = 0
KCO2 031454Z 18007KT 29/21 A3008 RMK A01 T02910212  RH  062%=      5-min Rain = 0
KCO2 031455Z 19008KT 29/21 A3008 RMK A01 T02910213  RH  062%=      5-min Rain = 0
KCO2 031456Z 19011KT 29/21 A3008 RMK A01 T02920211  RH  062%=      5-min Rain = 0
KCO2 031457Z 20008KT 29/21 A3008 RMK A01 T02920211  RH  062%=      5-min Rain = 0
KCO2 031458Z 20009KT 29/21 A3008 RMK A01 T02910211  RH  062%=      5-min Rain = 0
KCO2 031459Z 20007KT 29/21 A3008 RMK A01 T02900211  RH  062%=      5-min Rain = 0
KCO2 031500Z 20006KT 29/21 A3008 RMK A01 T02890211  RH  063%=      5-min Rain = 0
KCO2 031501Z 16009KT 29/21 A3008 RMK A01 T02900212  RH  063%=      5-min Rain = 0
KCO2 031502Z 17010KT 29/21 A3008 RMK A01 T02920211  RH  061%=      5-min Rain = 0
KCO2 031503Z 17010KT 29/21 A3008 RMK A01 T02930211  RH  061%=      5-min Rain = 0
KCO2 031504Z 17006KT 29/21 A3008 RMK A01 T02930211  RH  061%=      5-min Rain = 0
KCO2 031505Z 17009KT 29/21 A3008 RMK A01 T02940212  RH  061%=      5-min Rain = 0
KCO2 031506Z 18008KT 29/21 A3008 RMK A01 T02940210  RH  061%=      5-min Rain = 0
KCO2 031507Z 18010KT 29/21 A3008 RMK A01 T02940212  RH  061%=      5-min Rain = 0
KCO2 031508Z 19010KT 30/21 A3008 RMK A01 T02950210  RH  060%=      5-min Rain = 0
KCO2 031509Z 20007KT 29/21 A3008 RMK A01 T02930210  RH  061%=      5-min Rain = 0
KCO2 031510Z 20009KT 29/21 A3008 RMK A01 T02930210  RH  061%=      5-min Rain = 0
KCO2 031511Z 18010KT 29/21 A3008 RMK A01 T02940210  RH  061%=      5-min Rain = 0
KCO2 031512Z 19011KT 30/21 A3008 RMK A01 T02950208  RH  060%=      5-min Rain = 0
KCO2 031513Z 19008KT 30/21 A3008 RMK A01 T02950209  RH  060%=      5-min Rain = 0
KCO2 031514Z 20008KT 30/21 A3008 RMK A01 T02970209  RH  059%=      5-min Rain = 0
KCO2 031515Z 20009KT 30/21 A3008 RMK A01 T02970209  RH  059%=      5-min Rain = 0
KCO2 031516Z 20008KT 30/21 A3008 RMK A01 T02950208  RH  059%=      5-min Rain = 0
KCO2 031517Z 20005KT 29/21 A3008 RMK A01 T02940208  RH  060%=      5-min Rain = 0
KCO2 031518Z 18008KT 30/21 A3008 RMK A01 T02950211  RH  061%=      5-min Rain = 0
KCO2 031519Z 16010KT 30/21 A3008 RMK A01 T02980210  RH  059%=      5-min Rain = 0
KCO2 031520Z 17008KT 30/21 A3008 RMK A01 T03000211  RH  059%=      5-min Rain = 0
KCO2 031521Z 18009KT 30/21 A3008 RMK A01 T03020211  RH  058%=      5-min Rain = 0
KCO2 031522Z 18009KT 30/21 A3008 RMK A01 T03030209  RH  057%=      5-min Rain = 0
KCO2 031523Z 18010KT 30/21 A3008 RMK A01 T03010209  RH  058%=      5-min Rain = 0
KCO2 031524Z 19007KT 30/21 A3008 RMK A01 T03010210  RH  058%=      5-min Rain = 0
KCO2 031525Z 20006KT 30/21 A3008 RMK A01 T03010210  RH  058%=      5-min Rain = 0
KCO2 031526Z 19006KT 30/21 A3008 RMK A01 T03020209  RH  058%=      5-min Rain = 0
KCO2 031527Z 18007KT 30/21 A3008 RMK A01 T03030211  RH  058%=      5-min Rain = 0
KCO2 031528Z 17010KT 30/21 A3008 RMK A01 T03040210  RH  057%=      5-min Rain = 0
KCO2 031529Z 17008KT 30/21 A3008 RMK A01 T03030211  RH  058%=      5-min Rain = 0
KCO2 031530Z 19007KT 30/21 A3008 RMK A01 T03030209  RH  057%=      5-min Rain = 0
KCO2 031531Z 19008KT 30/21 A3008 RMK A01 T03030209  RH  057%=      5-min Rain = 0
KCO2 031532Z 20006KT 30/21 A3008 RMK A01 T03040208  RH  057%=      5-min Rain = 0
KCO2 031533Z 17008KT 31/21 A3008 RMK A01 T03050207  RH  056%=      5-min Rain = 0
KCO2 031534Z 17007KT 31/21 A3008 RMK A01 T03070210  RH  056%=      5-min Rain = 0
KCO2 031535Z 17008KT 31/21 A3008 RMK A01 T03090208  RH  055%=      5-min Rain = 0
KCO2 031536Z 16007KT 31/21 A3008 RMK A01 T03090209  RH  055%=      5-min Rain = 0
KCO2 031537Z 18006KT 31/21 A3008 RMK A01 T03090209  RH  056%=      5-min Rain = 0
KCO2 031538Z 17010KT 31/21 A3008 RMK A01 T03090210  RH  056%=      5-min Rain = 0
KCO2 031539Z 19009KT 31/21 A3008 RMK A01 T03090208  RH  055%=      5-min Rain = 0
KCO2 031540Z 18008KT 31/21 A3008 RMK A01 T03070208  RH  056%=      5-min Rain = 0
KCO2 031541Z 17006KT 31/21 A3008 RMK A01 T03050208  RH  056%=      5-min Rain = 0
KCO2 031542Z 17005KT 31/21 A3008 RMK A01 T03050207  RH  056%=      5-min Rain = 0
KCO2 031543Z 17008KT 31/21 A3008 RMK A01 T03050206  RH  055%=      5-min Rain = 0
KCO2 031544Z 18009KT 31/21 A3008 RMK A01 T03050206  RH  055%=      5-min Rain = 0
KCO2 031545Z 18010KT 31/20 A3008 RMK A01 T03070204  RH  054%=      5-min Rain = 0
KCO2 031546Z 19010KT 31/21 A3008 RMK A01 T03070206  RH  055%=      5-min Rain = 0
KCO2 031547Z 19010KT 31/21 A3008 RMK A01 T03080206  RH  054%=      5-min Rain = 0
KCO2 031548Z 18007KT 31/21 A3008 RMK A01 T03080206  RH  054%=      5-min Rain = 0
KCO2 031549Z 20007KT 31/21 A3008 RMK A01 T03080207  RH  055%=      5-min Rain = 0
KCO2 031550Z 19008KT 31/21 A3008 RMK A01 T03100206  RH  054%=      5-min Rain = 0
KCO2 031551Z 20009KT 31/21 A3008 RMK A01 T03110207  RH  054%=      5-min Rain = 0
KCO2 031552Z 18007KT 31/21 A3008 RMK A01 T03100208  RH  055%=      5-min Rain = 0
KCO2 031553Z 15010KT 31/21 A3007 RMK A01 T03120208  RH  054%=      5-min Rain = 0
KCO2 031554Z 16007KT 31/21 A3008 RMK A01 T03140207  RH  053%=      5-min Rain = 0
KCO2 031555Z 18008KT 31/21 A3007 RMK A01 T03140206  RH  052%=      5-min Rain = 0
KCO2 031556Z 17011KT 31/21 A3007 RMK A01 T03140206  RH  053%=      5-min Rain = 0
KCO2 031557Z 17009KT 31/21 A3007 RMK A01 T03140206  RH  053%=      5-min Rain = 0
KCO2 031558Z 17010KT 31/21 A3007 RMK A01 T03140206  RH  053%=      5-min Rain = 0
KCO2 031559Z 16007KT 31/20 A3007 RMK A01 T03110204  RH  053%=      5-min Rain = 0
KCO2 031600Z 18007KT 31/21 A3007 RMK A01 T03090207  RH  054%=      5-min Rain = 0
KCO2 031601Z 20006KT 31/21 A3007 RMK A01 T03120206  RH  053%=      5-min Rain = 0
KCO2 031602Z 17006KT 31/20 A3007 RMK A01 T03130204  RH  053%=      5-min Rain = 0
KCO2 031603Z 16009KT 31/21 A3007 RMK A01 T03130205  RH  053%=      5-min Rain = 0
KCO2 031604Z 19011KT 31/20 A3007 RMK A01 T03130203  RH  052%=      5-min Rain = 0
KCO2 031605Z 17009KT 31/20 A3007 RMK A01 T03140203  RH  052%=      5-min Rain = 0
KCO2 031606Z 18010KT 32/20 A3007 RMK A01 T03170203  RH  051%=      5-min Rain = 0
KCO2 031607Z 18009KT 32/20 A3007 RMK A01 T03170202  RH  051%=      5-min Rain = 0
KCO2 031608Z 18008KT 32/20 A3007 RMK A01 T03160202  RH  051%=      5-min Rain = 0
KCO2 031609Z 18009KT 32/20 A3007 RMK A01 T03180203  RH  051%=      5-min Rain = 0
KCO2 031610Z 18010KT 32/20 A3007 RMK A01 T03190204  RH  051%=      5-min Rain = 0
KCO2 031611Z 16010KT 32/20 A3007 RMK A01 T03210203  RH  050%=      5-min Rain = 0
KCO2 031612Z 17010KT 32/20 A3007 RMK A01 T03210201  RH  049%=      5-min Rain = 0
KCO2 031613Z 18007KT 32/20 A3007 RMK A01 T03200201  RH  049%=      5-min Rain = 0
KCO2 031614Z 20007KT 32/20 A3007 RMK A01 T03180201  RH  050%=      5-min Rain = 0
KCO2 031615Z 20009KT 32/20 A3007 RMK A01 T03180200  RH  050%=      5-min Rain = 0
KCO2 031616Z 20010KT 32/20 A3007 RMK A01 T03190198  RH  049%=      5-min Rain = 0
KCO2 031617Z 19009KT 32/20 A3007 RMK A01 T03190200  RH  049%=      5-min Rain = 0
KCO2 031618Z 19008KT 32/20 A3007 RMK A01 T03190201  RH  050%=      5-min Rain = 0
KCO2 031619Z 15008KT 32/20 A3007 RMK A01 T03190203  RH  050%=      5-min Rain = 0
KCO2 031620Z 14007KT 32/21 A3007 RMK A01 T03190205  RH  051%=      5-min Rain = 0
KCO2 031621Z 14006KT 32/20 A3007 RMK A01 T03190203  RH  050%=      5-min Rain = 0
KCO2 031622Z 16006KT 32/21 A3007 RMK A01 T03180207  RH  052%=      5-min Rain = 0
KCO2 031623Z 17006KT 32/21 A3007 RMK A01 T03200208  RH  052%=      5-min Rain = 0
KCO2 031624Z 17005KT 32/21 A3007 RMK A01 T03230205  RH  050%=      5-min Rain = 0
KCO2 031625Z 16005KT 32/21 A3007 RMK A01 T03220206  RH  050%=      5-min Rain = 0
KCO2 031626Z 14007KT 32/21 A3007 RMK A01 T03220208  RH  051%=      5-min Rain = 0
KCO2 031627Z 17010KT 32/21 A3007 RMK A01 T03240209  RH  051%=      5-min Rain = 0
KCO2 031628Z 17008KT 33/20 A3007 RMK A01 T03270202  RH  048%=      5-min Rain = 0
KCO2 031629Z 15006KT 33/20 A3007 RMK A01 T03250202  RH  048%=      5-min Rain = 0
KCO2 031630Z 16006KT 32/20 A3007 RMK A01 T03240200  RH  048%=      5-min Rain = 0
KCO2 031631Z 17009KT 33/20 A3007 RMK A01 T03260202  RH  048%=      5-min Rain = 0
KCO2 031632Z 17007KT 33/20 A3007 RMK A01 T03270202  RH  048%=      5-min Rain = 0
KCO2 031633Z 16006KT 33/20 A3007 RMK A01 T03250202  RH  048%=      5-min Rain = 0
KCO2 031634Z 17006KT 32/20 A3007 RMK A01 T03230203  RH  049%=      5-min Rain = 0
KCO2 031635Z 16010KT 32/20 A3007 RMK A01 T03230203  RH  049%=      5-min Rain = 0
KCO2 031636Z 16010KT 32/20 A3007 RMK A01 T03230200  RH  048%=      5-min Rain = 0
KCO2 031637Z 16009KT 32/20 A3007 RMK A01 T03230198  RH  048%=      5-min Rain = 0
KCO2 031638Z 14008KT 32/20 A3007 RMK A01 T03230197  RH  047%=      5-min Rain = 0
KCO2 031639Z 14007KT 32/20 A3007 RMK A01 T03240195  RH  046%=      5-min Rain = 0
KCO2 031640Z 14008KT 33/20 A3007 RMK A01 T03260197  RH  047%=      5-min Rain = 0
KCO2 031641Z 14008KT 33/20 A3007 RMK A01 T03260200  RH  047%=      5-min Rain = 0
KCO2 031642Z 18009KT 33/20 A3007 RMK A01 T03260200  RH  048%=      5-min Rain = 0
KCO2 031643Z 18007KT 33/20 A3007 RMK A01 T03250202  RH  048%=      5-min Rain = 0
KCO2 031644Z 20005KT 33/20 A3007 RMK A01 T03250202  RH  048%=      5-min Rain = 0
KCO2 031645Z 22005KT 33/20 A3007 RMK A01 T03250199  RH  047%=      5-min Rain = 0
KCO2 031646Z 20005KT 33/20 A3007 RMK A01 T03250201  RH  048%=      5-min Rain = 0
KCO2 031647Z 17004KT 33/20 A3007 RMK A01 T03260203  RH  049%=      5-min Rain = 0
KCO2 031648Z 16006KT 33/20 A3007 RMK A01 T03280202  RH  048%=      5-min Rain = 0
KCO2 031649Z 17006KT 33/20 A3007 RMK A01 T03290201  RH  047%=      5-min Rain = 0
KCO2 031650Z 17008KT 33/20 A3007 RMK A01 T03280199  RH  047%=      5-min Rain = 0
KCO2 031651Z 17006KT 33/20 A3007 RMK A01 T03280200  RH  047%=      5-min Rain = 0
KCO2 031652Z 16006KT 33/20 A3007 RMK A01 T03280200  RH  047%=      5-min Rain = 0
KCO2 031653Z 19008KT 33/19 A3007 RMK A01 T03300192  RH  044%=      5-min Rain = 0
KCO2 031654Z 19006KT 33/19 A3007 RMK A01 T03320186  RH  042%=      5-min Rain = 0
KCO2 031655Z 20004KT 33/19 A3007 RMK A01 T03310188  RH  043%=      5-min Rain = 0
KCO2 031656Z 20004KT 33/19 A3007 RMK A01 T03290192  RH  044%=      5-min Rain = 0
KCO2 031657Z 17003KT 33/19 A3007 RMK A01 T03280194  RH  045%=      5-min Rain = 0
KCO2 031658Z 18007KT 33/20 A3007 RMK A01 T03290197  RH  046%=      5-min Rain = 0
KCO2 031659Z 18008KT 33/18 A3007 RMK A01 T03320179  RH  040%=      5-min Rain = 0
KCO2 031700Z 18006KT 33/18 A3007 RMK A01 T03310181  RH  041%=      5-min Rain = 0
KCO2 031701Z 20007KT 33/19 A3007 RMK A01 T03320191  RH  044%=      5-min Rain = 0
KCO2 031702Z 16007KT 33/19 A3007 RMK A01 T03330193  RH  044%=      5-min Rain = 0
KCO2 031703Z 15007KT 34/19 A3007 RMK A01 T03350191  RH  043%=      5-min Rain = 0
KCO2 031704Z 15003KT 34/19 A3007 RMK A01 T03350189  RH  042%=      5-min Rain = 0
KCO2 031705Z 18009KT 33/19 A3007 RMK A01 T03340192  RH  043%=      5-min Rain = 0
KCO2 031706Z 19010KT 34/19 A3007 RMK A01 T03360189  RH  042%=      5-min Rain = 0
KCO2 031707Z 17007KT 34/19 A3007 RMK A01 T03370188  RH  041%=      5-min Rain = 0
KCO2 031708Z 17007KT 34/19 A3007 RMK A01 T03380191  RH  042%=      5-min Rain = 0
KCO2 031709Z 17011KT 34/19 A3006 RMK A01 T03390189  RH  041%=      5-min Rain = 0
KCO2 031710Z 16008KT 34/19 A3006 RMK A01 T03380186  RH  041%=      5-min Rain = 0
KCO2 031711Z 17010KT 34/18 A3006 RMK A01 T03380184  RH  040%=      5-min Rain = 0
KCO2 031712Z 17006KT 34/19 A3006 RMK A01 T03400187  RH  040%=      5-min Rain = 0
KCO2 031713Z 19007KT 34/19 A3006 RMK A01 T03410190  RH  041%=      5-min Rain = 0
KCO2 031714Z 21006KT 34/19 A3006 RMK A01 T03410192  RH  042%=      5-min Rain = 0
KCO2 031715Z 19005KT 34/19 A3006 RMK A01 T03380191  RH  042%=      5-min Rain = 0
KCO2 031716Z 17007KT 34/19 A3006 RMK A01 T03380186  RH  041%=      5-min Rain = 0
KCO2 031717Z 16009KT 34/18 A3006 RMK A01 T03410179  RH  038%=      5-min Rain = 0
KCO2 031718Z 15010KT 34/16 A3006 RMK A01 T03440164  RH  034%=      5-min Rain = 0
KCO2 031719Z 14010KT 34/16 A3006 RMK A01 T03440162  RH  034%=      5-min Rain = 0
KCO2 031720Z 13009KT 35/17 A3006 RMK A01 T03450167  RH  035%=      5-min Rain = 0
KCO2 031721Z 15007KT 34/17 A3006 RMK A01 T03440170  RH  036%=      5-min Rain = 0
KCO2 031722Z 19009KT 35/18 A3006 RMK A01 T03450175  RH  037%=      5-min Rain = 0
KCO2 031723Z 18009KT 35/18 A3006 RMK A01 T03460177  RH  037%=      5-min Rain = 0
KCO2 031724Z 18009KT 35/17 A3006 RMK A01 T03480171  RH  035%=      5-min Rain = 0
KCO2 031725Z 17007KT 35/17 A3006 RMK A01 T03460167  RH  035%=      5-min Rain = 0
KCO2 031726Z 19007KT 35/17 A3006 RMK A01 T03450170  RH  035%=      5-min Rain = 0
KCO2 031727Z 19008KT 35/17 A3006 RMK A01 T03460170  RH  035%=      5-min Rain = 0
KCO2 031728Z 15009KT 35/17 A3006 RMK A01 T03480173  RH  035%=      5-min Rain = 0
KCO2 031729Z 14010KT 35/17 A3006 RMK A01 T03490174  RH  035%=      5-min Rain = 0
KCO2 031730Z 15010KT 35/17 A3006 RMK A01 T03490173  RH  035%=      5-min Rain = 0
KCO2 031731Z 18008KT 35/18 A3006 RMK A01 T03500178  RH  036%=      5-min Rain = 0
KCO2 031732Z 18006KT 35/17 A3006 RMK A01 T03520173  RH  035%=      5-min Rain = 0
KCO2 031733Z 16010KT 35/17 A3006 RMK A01 T03520173  RH  035%=      5-min Rain = 0
KCO2 031734Z 16009KT 35/17 A3006 RMK A01 T03520170  RH  034%=      5-min Rain = 0
KCO2 031735Z 16009KT 35/17 A3006 RMK A01 T03520167  RH  033%=      5-min Rain = 0
KCO2 031736Z 17008KT 35/16 A3006 RMK A01 T03510163  RH  033%=      5-min Rain = 0
KCO2 031737Z 17008KT 35/16 A3006 RMK A01 T03500164  RH  033%=      5-min Rain = 0
KCO2 031738Z 17010KT 35/17 A3006 RMK A01 T03500168  RH  034%=      5-min Rain = 0
KCO2 031739Z 15008KT 35/17 A3006 RMK A01 T03540169  RH  033%=      5-min Rain = 0
KCO2 031740Z 14008KT 36/16 A3006 RMK A01 T03560160  RH  031%=      5-min Rain = 0
KCO2 031741Z 13009KT 36/16 A3006 RMK A01 T03550159  RH  031%=      5-min Rain = 0
KCO2 031742Z 14008KT 35/16 A3006 RMK A01 T03540161  RH  032%=      5-min Rain = 0
KCO2 031743Z 17009KT 36/15 A3006 RMK A01 T03550153  RH  030%=      5-min Rain = 0
KCO2 031744Z 17009KT 36/15 A3006 RMK A01 T03560148  RH  029%=      5-min Rain = 0
KCO2 031745Z 17009KT 36/16 A3006 RMK A01 T03580158  RH  031%=      5-min Rain = 0
KCO2 031746Z 16008KT 36/16 A3006 RMK A01 T03560163  RH  032%=      5-min Rain = 0
KCO2 031747Z 17006KT 35/17 A3005 RMK A01 T03530166  RH  033%=      5-min Rain = 0
KCO2 031748Z 17007KT 35/17 A3006 RMK A01 T03510166  RH  033%=      5-min Rain = 0
KCO2 031749Z 19010KT 35/16 A3005 RMK A01 T03490160  RH  033%=      5-min Rain = 0
KCO2 031750Z 17007G13KT 35/15 A3005 RMK A01 T03490153  RH  031%=      5-min Rain = 0
KCO2 031751Z 17005KT 35/15 A3005 RMK A01 T03500152  RH  031%=      5-min Rain = 0
KCO2 031752Z 19006KT 35/16 A3005 RMK A01 T03520162  RH  032%=      5-min Rain = 0
KCO2 031753Z 16006KT 36/17 A3005 RMK A01 T03550166  RH  033%=      5-min Rain = 0
KCO2 031754Z 14009KT 36/16 A3005 RMK A01 T03570163  RH  032%=      5-min Rain = 0
KCO2 031755Z 14008KT 36/16 A3005 RMK A01 T03580160  RH  031%=      5-min Rain = 0
KCO2 031756Z 14008KT 36/17 A3005 RMK A01 T03560166  RH  033%=      5-min Rain = 0
KCO2 031757Z 13009KT 36/17 A3005 RMK A01 T03560170  RH  033%=      5-min Rain = 0
KCO2 031758Z 13010KT 36/17 A3005 RMK A01 T03560170  RH  033%=      5-min Rain = 0
KCO2 031759Z 13011KT 36/17 A3005 RMK A01 T03560170  RH  033%=      5-min Rain = 0
KCO2 031800Z 15007KT 35/17 A3005 RMK A01 T03540166  RH  033%=      5-min Rain = 0
KCO2 031801Z 16004KT 35/17 A3005 RMK A01 T03530165  RH  033%=      5-min Rain = 0
KCO2 031802Z 16004KT 35/16 A3005 RMK A01 T03540157  RH  031%=      5-min Rain = 0
KCO2 031803Z 15007G12KT 36/16 A3005 RMK A01 T03550161  RH  032%=      5-min Rain = 0
KCO2 031804Z 14012KT 36/16 A3005 RMK A01 T03570157  RH  030%=      5-min Rain = 0
KCO2 031805Z 14008KT 36/15 A3005 RMK A01 T03580154  RH  030%=      5-min Rain = 0
KCO2 031806Z 14005KT 36/16 A3005 RMK A01 T03580155  RH  030%=      5-min Rain = 0
KCO2 031807Z 14003KT 36/16 A3005 RMK A01 T03570158  RH  031%=      5-min Rain = 0
KCO2 031808Z 13005KT 36/16 A3005 RMK A01 T03570164  RH  032%=      5-min Rain = 0
KCO2 031809Z 15008KT 36/16 A3005 RMK A01 T03610164  RH  031%=      5-min Rain = 0
KCO2 031810Z 17009KT 36/16 A3005 RMK A01 T03620156  RH  030%=      5-min Rain = 0
KCO2 031811Z 16007KT 36/16 A3005 RMK A01 T03590158  RH  030%=      5-min Rain = 0
KCO2 031812Z 15012KT 36/16 A3005 RMK A01 T03610155  RH  030%=      5-min Rain = 0
KCO2 031813Z 13010KT 36/15 A3005 RMK A01 T03630152  RH  029%=      5-min Rain = 0
KCO2 031814Z 15008KT 36/15 A3005 RMK A01 T03630153  RH  029%=      5-min Rain = 0
KCO2 031815Z 14008G13KT 36/15 A3005 RMK A01 T03580153  RH  029%=      5-min Rain = 0
KCO2 031816Z 15010KT 36/16 A3005 RMK A01 T03570158  RH  031%=      5-min Rain = 0
KCO2 031817Z 13006KT 36/16 A3005 RMK A01 T03580162  RH  031%=      5-min Rain = 0
KCO2 031818Z 12005KT 36/17 A3005 RMK A01 T03590165  RH  032%=      5-min Rain = 0
KCO2 031819Z 12008KT 36/17 A3005 RMK A01 T03590166  RH  032%=      5-min Rain = 0
KCO2 031820Z 12007KT 36/17 A3005 RMK A01 T03600166  RH  032%=      5-min Rain = 0
KCO2 031821Z 11007KT 36/17 A3005 RMK A01 T03580165  RH  032%=      5-min Rain = 0
KCO2 031822Z 13007KT 36/17 A3005 RMK A01 T03550166  RH  032%=      5-min Rain = 0
KCO2 031823Z 17010KT 36/16 A3005 RMK A01 T03560162  RH  032%=      5-min Rain = 0
KCO2 031824Z 16010KT 36/16 A3004 RMK A01 T03600157  RH  030%=      5-min Rain = 0
KCO2 031825Z 13012KT 36/16 A3005 RMK A01 T03600161  RH  031%=      5-min Rain = 0
KCO2 031826Z 13008KT 36/16 A3005 RMK A01 T03610162  RH  031%=      5-min Rain = 0
KCO2 031827Z 13005KT 36/16 A3004 RMK A01 T03580162  RH  031%=      5-min Rain = 0
KCO2 031828Z 11009KT 36/16 A3004 RMK A01 T03570159  RH  031%=      5-min Rain = 0
KCO2 031829Z 12007KT 36/15 A3004 RMK A01 T03570152  RH  030%=      5-min Rain = 0
KCO2 031830Z 11012KT 36/15 A3004 RMK A01 T03560154  RH  030%=      5-min Rain = 0
KCO2 031831Z 09009KT 36/15 A3004 RMK A01 T03560151  RH  029%=      5-min Rain = 0
KCO2 031832Z 15018G24KT 36/16 A3003 RMK A01 T03570156  RH  030%=      5-min Rain = 0
KCO2 031833Z 18010G15KT 36/16 A3004 RMK A01 T03610155  RH  029%=      5-min Rain = 0
KCO2 031834Z 17012KT 36/16 A3004 RMK A01 T03640158  RH  029%=      5-min Rain = 0
KCO2 031835Z 16012KT 37/15 A3004 RMK A01 T03650154  RH  029%=      5-min Rain = 0
KCO2 031836Z 16010KT 36/15 A3004 RMK A01 T03630154  RH  029%=      5-min Rain = 0
KCO2 031837Z 16009KT 36/16 A3004 RMK A01 T03640158  RH  030%=      5-min Rain = 0
KCO2 031838Z 19010KT 36/16 A3004 RMK A01 T03630156  RH  029%=      5-min Rain = 0
KCO2 031839Z 18011KT 36/16 A3004 RMK A01 T03620156  RH  029%=      5-min Rain = 0
KCO2 031840Z 18011KT 36/15 A3004 RMK A01 T03630152  RH  029%=      5-min Rain = 0
KCO2 031841Z 18009KT 36/15 A3004 RMK A01 T03620154  RH  029%=      5-min Rain = 0
KCO2 031842Z 19007KT 36/15 A3004 RMK A01 T03610154  RH  029%=      5-min Rain = 0
KCO2 031843Z 18008G14KT 36/15 A3004 RMK A01 T03590154  RH  030%=      5-min Rain = 0
KCO2 031844Z 15013KT 36/14 A3004 RMK A01 T03610136  RH  026%=      5-min Rain = 0
KCO2 031845Z 16013KT 36/12 A3004 RMK A01 T03640120  RH  023%=      5-min Rain = 0
KCO2 031846Z 17010KT 36/11 A3004 RMK A01 T03630112  RH  022%=      5-min Rain = 0
KCO2 031847Z 17010KT 36/12 A3004 RMK A01 T03640116  RH  022%=      5-min Rain = 0
KCO2 031848Z 16010KT 37/12 A3004 RMK A01 T03650123  RH  023%=      5-min Rain = 0
KCO2 031849Z 15012G17KT 37/13 A3004 RMK A01 T03670132  RH  025%=      5-min Rain = 0
KCO2 031850Z 15009KT 37/13 A3004 RMK A01 T03680134  RH  025%=      5-min Rain = 0
KCO2 031851Z 14010KT 37/14 A3004 RMK A01 T03680137  RH  025%=      5-min Rain = 0
KCO2 031852Z 14009KT 37/14 A3004 RMK A01 T03680138  RH  025%=      5-min Rain = 0
KCO2 031853Z 15009KT 37/14 A3004 RMK A01 T03650141  RH  026%=      5-min Rain = 0
KCO2 031854Z 15007KT 36/14 A3004 RMK A01 T03620139  RH  027%=      5-min Rain = 0
KCO2 031855Z 16006KT 36/14 A3004 RMK A01 T03590143  RH  028%=      5-min Rain = 0
KCO2 031856Z 15007KT 36/14 A3003 RMK A01 T03600139  RH  027%=      5-min Rain = 0
KCO2 031857Z 14007KT 36/14 A3004 RMK A01 T03600135  RH  026%=      5-min Rain = 0
KCO2 031858Z 14008KT 36/15 A3003 RMK A01 T03590146  RH  028%=      5-min Rain = 0
KCO2 031859Z 13008KT 36/15 A3003 RMK A01 T03600147  RH  028%=      5-min Rain = 0
KCO2 031900Z 14008KT 36/15 A3003 RMK A01 T03600150  RH  029%=      5-min Rain = 0
KCO2 031901Z 15011KT 37/15 A3003 RMK A01 T03650149  RH  028%=      5-min Rain = 0
KCO2 031902Z 16009KT 37/14 A3003 RMK A01 T03690144  RH  026%=      5-min Rain = 0
KCO2 031903Z 16005KT 37/14 A3003 RMK A01 T03670144  RH  026%=      5-min Rain = 0
KCO2 031904Z 12007KT 37/14 A3003 RMK A01 T03650144  RH  027%=      5-min Rain = 0
KCO2 031905Z 16011KT 37/14 A3003 RMK A01 T03650142  RH  026%=      5-min Rain = 0
KCO2 031906Z 19010KT 37/14 A3003 RMK A01 T03680136  RH  025%=      5-min Rain = 0
KCO2 031907Z 16010KT 37/14 A3003 RMK A01 T03690136  RH  025%=      5-min Rain = 0
KCO2 031908Z 15014KT 37/13 A3003 RMK A01 T03690128  RH  024%=      5-min Rain = 0
KCO2 031909Z 16014KT 37/13 A3003 RMK A01 T03690132  RH  024%=      5-min Rain = 0
KCO2 031910Z 16009KT 37/14 A3003 RMK A01 T03660137  RH  026%=      5-min Rain = 0
KCO2 031911Z 16007KT 36/14 A3003 RMK A01 T03640140  RH  026%=      5-min Rain = 0
KCO2 031912Z 17008KT 36/13 A3003 RMK A01 T03640134  RH  025%=      5-min Rain = 0
KCO2 031913Z 15006KT 36/13 A3003 RMK A01 T03620131  RH  025%=      5-min Rain = 0
KCO2 031914Z 14004KT 36/13 A3003 RMK A01 T03620133  RH  025%=      5-min Rain = 0
KCO2 031915Z 18006KT 37/14 A3003 RMK A01 T03650139  RH  026%=      5-min Rain = 0
KCO2 031916Z 17010KT 37/14 A3003 RMK A01 T03670135  RH  025%=      5-min Rain = 0
KCO2 031917Z 18011KT 37/13 A3003 RMK A01 T03690133  RH  024%=      5-min Rain = 0
KCO2 031918Z 19008KT 37/13 A3003 RMK A01 T03690127  RH  023%=      5-min Rain = 0
KCO2 031919Z 17007KT 37/14 A3003 RMK A01 T03690135  RH  025%=      5-min Rain = 0
KCO2 031920Z 14008KT 37/14 A3003 RMK A01 T03680137  RH  025%=      5-min Rain = 0
KCO2 031921Z 16007KT 37/14 A3003 RMK A01 T03670144  RH  027%=      5-min Rain = 0
KCO2 031922Z 18004G9KT 37/15 A3003 RMK A01 T03680146  RH  027%=      5-min Rain = 0
KCO2 031923Z 16008KT 37/14 A3003 RMK A01 T03680144  RH  027%=      5-min Rain = 0
KCO2 031924Z 14009KT 37/14 A3003 RMK A01 T03660141  RH  026%=      5-min Rain = 0
KCO2 031925Z 14011KT 37/14 A3003 RMK A01 T03670135  RH  025%=      5-min Rain = 0
KCO2 031926Z 12013KT 37/13 A3003 RMK A01 T03700134  RH  025%=      5-min Rain = 0
KCO2 031927Z 12010KT 37/13 A3003 RMK A01 T03690133  RH  024%=      5-min Rain = 0
KCO2 031928Z 14012KT 37/14 A3003 RMK A01 T03680136  RH  025%=      5-min Rain = 0
KCO2 031929Z 14011KT 37/13 A3003 RMK A01 T03690132  RH  024%=      5-min Rain = 0
KCO2 031930Z 13013G18KT 37/14 A3003 RMK A01 T03690136  RH  025%=      5-min Rain = 0
KCO2 031931Z 12009KT 37/13 A3003 RMK A01 T03680133  RH  025%=      5-min Rain = 0
KCO2 031932Z 12009KT 37/14 A3003 RMK A01 T03650138  RH  026%=      5-min Rain = 0
KCO2 031933Z 12008KT 37/14 A3003 RMK A01 T03670136  RH  025%=      5-min Rain = 0
KCO2 031934Z 12006KT 37/13 A3003 RMK A01 T03650132  RH  025%=      5-min Rain = 0
KCO2 031935Z 11008KT 36/13 A3003 RMK A01 T03640130  RH  025%=      5-min Rain = 0
KCO2 031936Z 11007KT 36/12 A3003 RMK A01 T03640121  RH  023%=      5-min Rain = 0
KCO2 031937Z 12013KT 37/13 A3003 RMK A01 T03660126  RH  024%=      5-min Rain = 0
KCO2 031938Z 11009KT 37/13 A3003 RMK A01 T03680127  RH  024%=      5-min Rain = 0
KCO2 031939Z 11007KT 37/13 A3003 RMK A01 T03670128  RH  024%=      5-min Rain = 0
KCO2 031940Z 10008KT 37/13 A3002 RMK A01 T03670125  RH  023%=      5-min Rain = 0
KCO2 031941Z 08006KT 37/12 A3002 RMK A01 T03660116  RH  022%=      5-min Rain = 0
KCO2 031942Z 11006KT 37/12 A3003 RMK A01 T03650119  RH  023%=      5-min Rain = 0
KCO2 031943Z 15010KT 37/12 A3003 RMK A01 T03660122  RH  023%=      5-min Rain = 0
KCO2 031944Z 16008KT 37/12 A3002 RMK A01 T03680123  RH  023%=      5-min Rain = 0
KCO2 031945Z 16010KT 37/12 A3002 RMK A01 T03700123  RH  023%=      5-min Rain = 0
KCO2 031946Z 18008KT 37/12 A3002 RMK A01 T03690118  RH  022%=      5-min Rain = 0
KCO2 031947Z 20008KT 37/12 A3002 RMK A01 T03660118  RH  022%=      5-min Rain = 0
KCO2 031948Z 22006KT 37/11 A3002 RMK A01 T03660113  RH  022%=      5-min Rain = 0
KCO2 031949Z 22002KT 36/11 A3002 RMK A01 T03640112  RH  022%=      5-min Rain = 0
KCO2 031950Z 13007KT 36/12 A3002 RMK A01 T03630115  RH  022%=      5-min Rain = 0
KCO2 031951Z 14010KT 37/11 A3002 RMK A01 T03670111  RH  021%=      5-min Rain = 0
KCO2 031952Z 15012KT 37/10 A3002 RMK A01 T03740102  RH  019%=      5-min Rain = 0
KCO2 031953Z 15012KT 38/11 A3002 RMK A01 T03770105  RH  019%=      5-min Rain = 0
KCO2 031954Z 14011KT 38/10 A3002 RMK A01 T03770099  RH  019%=      5-min Rain = 0
KCO2 031955Z 13010KT 38/10 A3002 RMK A01 T03770104  RH  019%=      5-min Rain = 0
KCO2 031956Z 12010KT 38/12 A3002 RMK A01 T03770116  RH  021%=      5-min Rain = 0
KCO2 031957Z 11007KT 38/12 A3002 RMK A01 T03750121  RH  022%=      5-min Rain = 0
KCO2 031958Z 11006KT 37/12 A3002 RMK A01 T03710116  RH  022%=      5-min Rain = 0
KCO2 031959Z 14008KT 37/12 A3002 RMK A01 T03680121  RH  023%=      5-min Rain = 0
KCO2 032000Z 15009KT 37/12 A3002 RMK A01 T03690118  RH  022%=      5-min Rain = 0
KCO2 032001Z 15006KT 37/12 A3002 RMK A01 T03700118  RH  022%=      5-min Rain = 0
KCO2 032002Z 15005KT 37/12 A3002 RMK A01 T03680122  RH  023%=      5-min Rain = 0
KCO2 032003Z 21003KT 37/12 A3002 RMK A01 T03680118  RH  022%=      5-min Rain = 0
KCO2 032004Z 25003KT 37/12 A3002 RMK A01 T03680116  RH  022%=      5-min Rain = 0
KCO2 032005Z 25003KT 37/12 A3002 RMK A01 T03680117  RH  022%=      5-min Rain = 0
KCO2 032006Z 14005KT 37/12 A3002 RMK A01 T03720119  RH  022%=      5-min Rain = 0
KCO2 032007Z 11004G9KT 37/12 A3002 RMK A01 T03740117  RH  021%=      5-min Rain = 0
KCO2 032008Z 13005G10KT 37/12 A3002 RMK A01 T03710116  RH  022%=      5-min Rain = 0
KCO2 032009Z 15009KT 37/12 A3002 RMK A01 T03710117  RH  022%=      5-min Rain = 0
KCO2 032010Z 16008KT 38/12 A3002 RMK A01 T03750117  RH  021%=      5-min Rain = 0
KCO2 032011Z 14007KT 38/11 A3002 RMK A01 T03760113  RH  021%=      5-min Rain = 0
KCO2 032012Z 16007KT 38/11 A3002 RMK A01 T03760114  RH  021%=      5-min Rain = 0
KCO2 032013Z 17004KT 38/11 A3002 RMK A01 T03750112  RH  021%=      5-min Rain = 0
KCO2 032014Z 11005KT 37/12 A3002 RMK A01 T03720116  RH  021%=      5-min Rain = 0
KCO2 032015Z 12003KT 37/11 A3001 RMK A01 T03730113  RH  021%=      5-min Rain = 0
KCO2 032016Z 14005KT 37/11 A3001 RMK A01 T03740111  RH  021%=      5-min Rain = 0
KCO2 032017Z 14006KT 37/11 A3001 RMK A01 T03720110  RH  021%=      5-min Rain = 0
KCO2 032018Z 17009KT 37/12 A3001 RMK A01 T03710120  RH  022%=      5-min Rain = 0
KCO2 032019Z 15008KT 37/12 A3002 RMK A01 T03720124  RH  023%=      5-min Rain = 0
KCO2 032020Z 13004KT 37/13 A3001 RMK A01 T03680127  RH  024%=      5-min Rain = 0
KCO2 032021Z 10003KT 37/13 A3001 RMK A01 T03670127  RH  024%=      5-min Rain = 0
KCO2 032022Z 17002KT 37/13 A3001 RMK A01 T03670125  RH  023%=      5-min Rain = 0
KCO2 032023Z 18006KT 37/13 A3001 RMK A01 T03680133  RH  025%=      5-min Rain = 0
KCO2 032024Z 18004KT 37/13 A3001 RMK A01 T03720127  RH  023%=      5-min Rain = 0
KCO2 032025Z 15004KT 37/13 A3001 RMK A01 T03720128  RH  023%=      5-min Rain = 0
KCO2 032026Z 18004KT 37/12 A3001 RMK A01 T03720124  RH  023%=      5-min Rain = 0
KCO2 032027Z 17003KT 37/12 A3001 RMK A01 T03720121  RH  022%=      5-min Rain = 0
KCO2 032028Z 15008G13KT 38/12 A3001 RMK A01 T03750123  RH  022%=      5-min Rain = 0
KCO2 032029Z 15013KT 38/13 A3001 RMK A01 T03780126  RH  022%=      5-min Rain = 0
KCO2 032030Z 16011KT 38/13 A3001 RMK A01 T03750126  RH  023%=      5-min Rain = 0
KCO2 032031Z 17009KT 37/13 A3001 RMK A01 T03730127  RH  023%=      5-min Rain = 0
KCO2 032032Z 18005KT 37/12 A3001 RMK A01 T03700124  RH  023%=      5-min Rain = 0
KCO2 032033Z 16005KT 37/13 A3001 RMK A01 T03670126  RH  024%=      5-min Rain = 0
KCO2 032034Z 15007KT 37/13 A3001 RMK A01 T03690128  RH  024%=      5-min Rain = 0
KCO2 032035Z 15008KT 37/13 A3001 RMK A01 T03730133  RH  024%=      5-min Rain = 0
KCO2 032036Z 16007KT 38/13 A3001 RMK A01 T03760132  RH  023%=      5-min Rain = 0
KCO2 032037Z 18009KT 38/14 A3001 RMK A01 T03760135  RH  024%=      5-min Rain = 0
KCO2 032038Z 18007KT 38/14 A3001 RMK A01 T03770138  RH  024%=      5-min Rain = 0
KCO2 032039Z 17006KT 38/13 A3001 RMK A01 T03790134  RH  023%=      5-min Rain = 0
KCO2 032040Z 18012KT 38/13 A3001 RMK A01 T03760134  RH  024%=      5-min Rain = 0
KCO2 032041Z 17010KT 38/13 A3001 RMK A01 T03750132  RH  024%=      5-min Rain = 0
KCO2 032042Z 17010KT 38/13 A3001 RMK A01 T03750133  RH  024%=      5-min Rain = 0
KCO2 032043Z 15011KT 38/14 A3001 RMK A01 T03760135  RH  024%=      5-min Rain = 0
KCO2 032044Z 14008KT 38/13 A3001 RMK A01 T03780133  RH  023%=      5-min Rain = 0
KCO2 032045Z 13006KT 38/13 A3001 RMK A01 T03780132  RH  023%=      5-min Rain = 0
KCO2 032046Z 17006KT 38/13 A30 RMK A01 T03750133  RH  024%=      5-min Rain = 0
KCO2 032047Z 15005KT 37/13 A30 RMK A01 T03740133  RH  024%=      5-min Rain = 0
KCO2 032048Z 14006KT 37/13 A30 RMK A01 T03740132  RH  024%=      5-min Rain = 0
KCO2 032049Z 16006KT 37/13 A30 RMK A01 T03730133  RH  024%=      5-min Rain = 0
KCO2 032050Z 17009G17KT 37/13 A30 RMK A01 T03740130  RH  023%=      5-min Rain = 0
KCO2 032051Z 16012KT 38/13 A30 RMK A01 T03750130  RH  023%=      5-min Rain = 0
KCO2 032052Z 18010KT 37/13 A30 RMK A01 T03740130  RH  023%=      5-min Rain = 0
KCO2 032053Z 14009KT 37/13 A30 RMK A01 T03730128  RH  023%=      5-min Rain = 0
KCO2 032054Z 13004KT 37/13 A30 RMK A01 T03730128  RH  023%=      5-min Rain = 0
KCO2 032055Z 19002KT 37/13 A30 RMK A01 T03740129  RH  023%=      5-min Rain = 0
KCO2 032056Z 20005KT 38/12 A30 RMK A01 T03750124  RH  022%=      5-min Rain = 0
KCO2 032057Z 20006KT 37/12 A30 RMK A01 T03740124  RH  022%=      5-min Rain = 0
KCO2 032058Z 17008KT 38/13 A2999 RMK A01 T03750129  RH  023%=      5-min Rain = 0
KCO2 032059Z 14008KT 38/13 A2999 RMK A01 T03800129  RH  022%=      5-min Rain = 0
KCO2 032100Z 16008KT 38/13 A30 RMK A01 T03810129  RH  022%=      5-min Rain = 0
KCO2 032101Z 17009KT 38/13 A30 RMK A01 T03810132  RH  023%=      5-min Rain = 0
KCO2 032102Z 14010KT 38/13 A30 RMK A01 T03840133  RH  022%=      5-min Rain = 0
KCO2 032103Z 12011KT 38/13 A30 RMK A01 T03840133  RH  022%=      5-min Rain = 0
KCO2 032104Z 12006KT 38/13 A30 RMK A01 T03810132  RH  023%=      5-min Rain = 0
KCO2 032105Z 13008KT 38/14 A2999 RMK A01 T03790135  RH  023%=      5-min Rain = 0
KCO2 032106Z 16009KT 38/13 A2999 RMK A01 T03800133  RH  023%=      5-min Rain = 0
KCO2 032107Z 16009KT 38/13 A2999 RMK A01 T03800132  RH  023%=      5-min Rain = 0
KCO2 032108Z 17008KT 38/13 A2999 RMK A01 T03780130  RH  023%=      5-min Rain = 0
KCO2 032109Z 14010KT 38/13 A2999 RMK A01 T03770131  RH  023%=      5-min Rain = 0
KCO2 032110Z 14011KT 38/13 A2999 RMK A01 T03770129  RH  023%=      5-min Rain = 0
KCO2 032111Z 14011KT 38/13 A2999 RMK A01 T03770126  RH  022%=      5-min Rain = 0
KCO2 032112Z 14008KT 37/12 A2999 RMK A01 T03740122  RH  022%=      5-min Rain = 0
KCO2 032113Z 13006KT 37/12 A2999 RMK A01 T03710123  RH  023%=      5-min Rain = 0
KCO2 032114Z 17004KT 37/13 A2999 RMK A01 T03710125  RH  023%=      5-min Rain = 0
KCO2 032115Z 18004KT 37/13 A2999 RMK A01 T03710125  RH  023%=      5-min Rain = 0
KCO2 032116Z 16004KT 37/13 A2999 RMK A01 T03700128  RH  024%=      5-min Rain = 0
KCO2 032117Z 14008KT 37/13 A2999 RMK A01 T03700127  RH  023%=      5-min Rain = 0
KCO2 032118Z 17012KT 37/13 A2999 RMK A01 T03730130  RH  023%=      5-min Rain = 0
KCO2 032119Z 16013KT 38/13 A2999 RMK A01 T03760130  RH  023%=      5-min Rain = 0
KCO2 032120Z 15014KT 38/13 A2999 RMK A01 T03770128  RH  023%=      5-min Rain = 0
KCO2 032121Z 17009KT 38/13 A2999 RMK A01 T03760129  RH  023%=      5-min Rain = 0
KCO2 032122Z 17003KT 38/13 A2999 RMK A01 T03750127  RH  023%=      5-min Rain = 0
KCO2 032123Z 16004KT 37/12 A2999 RMK A01 T03730123  RH  022%=      5-min Rain = 0
KCO2 032124Z 16005KT 37/13 A2999 RMK A01 T03720126  RH  023%=      5-min Rain = 0
KCO2 032125Z 21004KT 37/13 A2999 RMK A01 T03740126  RH  023%=      5-min Rain = 0
KCO2 032126Z 23006KT 38/12 A2999 RMK A01 T03760122  RH  022%=      5-min Rain = 0
KCO2 032127Z 21005KT 38/12 A2999 RMK A01 T03750118  RH  021%=      5-min Rain = 0
KCO2 032128Z 16007KT 37/13 A2999 RMK A01 T03740126  RH  023%=      5-min Rain = 0
KCO2 032129Z 18010KT 38/13 A2999 RMK A01 T03750128  RH  023%=      5-min Rain = 0
KCO2 032130Z 18013KT 38/13 A2998 RMK A01 T03750131  RH  023%=      5-min Rain = 0
KCO2 032131Z 17012KT 38/13 A2999 RMK A01 T03750132  RH  024%=      5-min Rain = 0
KCO2 032132Z 18007KT 38/13 A2999 RMK A01 T03750132  RH  024%=      5-min Rain = 0
KCO2 032133Z 18007KT 37/13 A2999 RMK A01 T03720131  RH  024%=      5-min Rain = 0
KCO2 032134Z 17008KT 37/13 A2998 RMK A01 T03700132  RH  024%=      5-min Rain = 0
KCO2 032135Z 14008KT 37/13 A2999 RMK A01 T03710129  RH  023%=      5-min Rain = 0
KCO2 032136Z 14005KT 37/13 A2998 RMK A01 T03720130  RH  024%=      5-min Rain = 0
KCO2 032137Z 19006KT 37/13 A2998 RMK A01 T03730131  RH  024%=      5-min Rain = 0
KCO2 032138Z 16010KT 38/13 A2998 RMK A01 T03750127  RH  023%=      5-min Rain = 0
KCO2 032139Z 19008KT 38/12 A2998 RMK A01 T03760122  RH  022%=      5-min Rain = 0
KCO2 032140Z 20008KT 38/12 A2998 RMK A01 T03750120  RH  022%=      5-min Rain = 0
KCO2 032141Z 23006KT 37/12 A2998 RMK A01 T03720119  RH  022%=      5-min Rain = 0
KCO2 032142Z 19007KT 37/12 A2998 RMK A01 T03700120  RH  022%=      5-min Rain = 0
KCO2 032143Z 16008KT 37/12 A2998 RMK A01 T03720124  RH  023%=      5-min Rain = 0
KCO2 032144Z 16005KT 37/13 A2998 RMK A01 T03740127  RH  023%=      5-min Rain = 0
KCO2 032145Z 13008KT 38/13 A2998 RMK A01 T03750132  RH  024%=      5-min Rain = 0
KCO2 032146Z 13009KT 38/13 A2998 RMK A01 T03750132  RH  024%=      5-min Rain = 0
KCO2 032147Z 14010KT 38/13 A2998 RMK A01 T03750134  RH  024%=      5-min Rain = 0
KCO2 032148Z 13009KT 38/13 A2998 RMK A01 T03760133  RH  023%=      5-min Rain = 0
KCO2 032149Z 13008KT 38/13 A2998 RMK A01 T03770132  RH  023%=      5-min Rain = 0
KCO2 032150Z 12006KT 38/13 A2998 RMK A01 T03770132  RH  023%=      5-min Rain = 0
KCO2 032151Z 11004KT 38/13 A2998 RMK A01 T03750131  RH  023%=      5-min Rain = 0
KCO2 032152Z 10003KT 37/13 A2998 RMK A01 T03730133  RH  024%=      5-min Rain = 0
KCO2 032153Z 09005KT 37/13 A2998 RMK A01 T03730134  RH  024%=      5-min Rain = 0
KCO2 032154Z 11008KT 37/14 A2998 RMK A01 T03730136  RH  024%=      5-min Rain = 0
KCO2 032155Z 15004KT 37/13 A2998 RMK A01 T03710132  RH  024%=      5-min Rain = 0
KCO2 032156Z 13009KT 37/13 A2998 RMK A01 T03700133  RH  024%=      5-min Rain = 0
KCO2 032157Z 13009KT 37/14 A2998 RMK A01 T03720135  RH  024%=      5-min Rain = 0
KCO2 032158Z 14007KT 37/13 A2998 RMK A01 T03730132  RH  024%=      5-min Rain = 0
KCO2 032159Z 12004KT 37/13 A2998 RMK A01 T03730132  RH  024%=      5-min Rain = 0
KCO2 032200Z 14006KT 37/13 A2998 RMK A01 T03730133  RH  024%=      5-min Rain = 0
KCO2 032201Z 15008KT 37/14 A2998 RMK A01 T03740138  RH  025%=      5-min Rain = 0
KCO2 032202Z 15010KT 38/13 A2998 RMK A01 T03760133  RH  024%=      5-min Rain = 0
KCO2 032203Z 16006KT 38/13 A2998 RMK A01 T03750134  RH  024%=      5-min Rain = 0
KCO2 032204Z 16006KT 38/13 A2997 RMK A01 T03750132  RH  024%=      5-min Rain = 0
KCO2 032205Z 15011KT 37/13 A2997 RMK A01 T03730131  RH  024%=      5-min Rain = 0
KCO2 032206Z 14009KT 37/13 A2997 RMK A01 T03730130  RH  023%=      5-min Rain = 0
KCO2 032207Z 16007KT 37/13 A2997 RMK A01 T03740128  RH  023%=      5-min Rain = 0
KCO2 032208Z 17008KT 38/13 A2997 RMK A01 T03750127  RH  023%=      5-min Rain = 0
KCO2 032209Z 18010KT 38/12 A2997 RMK A01 T03760122  RH  022%=      5-min Rain = 0
KCO2 032210Z 20010KT 38/13 A2997 RMK A01 T03760128  RH  023%=      5-min Rain = 0
KCO2 032211Z 19009KT 38/13 A2997 RMK A01 T03750128  RH  023%=      5-min Rain = 0
KCO2 032212Z 19007KT 37/13 A2997 RMK A01 T03720129  RH  023%=      5-min Rain = 0
KCO2 032213Z 15008KT 37/13 A2997 RMK A01 T03710127  RH  023%=      5-min Rain = 0
KCO2 032214Z 14007KT 37/12 A2997 RMK A01 T03720124  RH  023%=      5-min Rain = 0
KCO2 032215Z 13007KT 37/14 A2997 RMK A01 T03730135  RH  024%=      5-min Rain = 0
KCO2 032216Z 15010KT 38/13 A2997 RMK A01 T03750132  RH  023%=      5-min Rain = 0
KCO2 032217Z 16010G15KT 38/13 A2997 RMK A01 T03760125  RH  022%=      5-min Rain = 0
KCO2 032218Z 16012KT 38/13 A2997 RMK A01 T03760130  RH  023%=      5-min Rain = 0
KCO2 032219Z 15010KT 37/13 A2997 RMK A01 T03740130  RH  023%=      5-min Rain = 0
KCO2 032220Z 14008KT 37/13 A2997 RMK A01 T03730133  RH  024%=      5-min Rain = 0
KCO2 032221Z 14008KT 37/13 A2997 RMK A01 T03730133  RH  024%=      5-min Rain = 0
KCO2 032222Z 14008KT 37/14 A2997 RMK A01 T03730136  RH  024%=      5-min Rain = 0
KCO2 032223Z 16008KT 38/14 A2997 RMK A01 T03750135  RH  024%=      5-min Rain = 0
KCO2 032224Z 16006KT 38/13 A2997 RMK A01 T03750134  RH  024%=      5-min Rain = 0
KCO2 032225Z 16006KT 37/13 A2997 RMK A01 T03740134  RH  024%=      5-min Rain = 0
KCO2 032226Z 18004KT 37/14 A2997 RMK A01 T03720136  RH  024%=      5-min Rain = 0
KCO2 032227Z 16003KT 37/13 A2997 RMK A01 T03710134  RH  024%=      5-min Rain = 0
KCO2 032228Z 14004KT 37/14 A2997 RMK A01 T03700135  RH  025%=      5-min Rain = 0
KCO2 032229Z 13006KT 37/14 A2997 RMK A01 T03710136  RH  025%=      5-min Rain = 0
KCO2 032230Z 11005KT 37/14 A2997 RMK A01 T03710140  RH  025%=      5-min Rain = 0
KCO2 032231Z 12008KT 37/14 A2997 RMK A01 T03720144  RH  026%=      5-min Rain = 0
KCO2 032232Z 12007KT 37/14 A2997 RMK A01 T03740140  RH  025%=      5-min Rain = 0
KCO2 032233Z 15011KT 38/14 A2997 RMK A01 T03750142  RH  025%=      5-min Rain = 0
KCO2 032234Z 15010KT 38/14 A2997 RMK A01 T03750142  RH  025%=      5-min Rain = 0
KCO2 032235Z 16010KT 37/14 A2997 RMK A01 T03730142  RH  025%=      5-min Rain = 0
KCO2 032236Z 14008KT 37/14 A2997 RMK A01 T03730142  RH  025%=      5-min Rain = 0
KCO2 032237Z 11006KT 37/14 A2997 RMK A01 T03720141  RH  025%=      5-min Rain = 0
KCO2 032238Z 10004KT 37/14 A2997 RMK A01 T03700143  RH  026%=      5-min Rain = 0
KCO2 032239Z 15004KT 37/15 A2997 RMK A01 T03700145  RH  026%=      5-min Rain = 0
KCO2 032240Z 14005KT 37/14 A2997 RMK A01 T03700141  RH  026%=      5-min Rain = 0
KCO2 032241Z 12005KT 37/14 A2997 RMK A01 T03710142  RH  026%=      5-min Rain = 0
KCO2 032242Z 14007KT 37/14 A2997 RMK A01 T03710140  RH  025%=      5-min Rain = 0
KCO2 032243Z 14009G14KT 37/14 A2997 RMK A01 T03700141  RH  025%=      5-min Rain = 0
KCO2 032244Z 15009KT 37/14 A2997 RMK A01 T03710138  RH  025%=      5-min Rain = 0
KCO2 032245Z 15009KT 37/14 A2997 RMK A01 T03710140  RH  025%=      5-min Rain = 0
KCO2 032246Z 16008KT 37/14 A2997 RMK A01 T03720141  RH  025%=      5-min Rain = 0
KCO2 032247Z 17008KT 37/14 A2997 RMK A01 T03720141  RH  025%=      5-min Rain = 0
KCO2 032248Z 17006KT 37/14 A2997 RMK A01 T03720139  RH  025%=      5-min Rain = 0
KCO2 032249Z 16007KT 37/14 A2997 RMK A01 T03710139  RH  025%=      5-min Rain = 0
KCO2 032250Z 16010KT 37/14 A2997 RMK A01 T03710137  RH  025%=      5-min Rain = 0
KCO2 032251Z 17010KT 37/14 A2996 RMK A01 T03720135  RH  024%=      5-min Rain = 0
KCO2 032252Z 17007KT 37/13 A2996 RMK A01 T03730134  RH  024%=      5-min Rain = 0
KCO2 032253Z 18006KT 37/14 A2996 RMK A01 T03720136  RH  025%=      5-min Rain = 0
KCO2 032254Z 18009KT 37/14 A2996 RMK A01 T03720138  RH  025%=      5-min Rain = 0
KCO2 032255Z 18009KT 37/14 A2996 RMK A01 T03720135  RH  024%=      5-min Rain = 0
KCO2 032256Z 16010KT 37/14 A2996 RMK A01 T03720141  RH  025%=      5-min Rain = 0
KCO2 032257Z 15011KT 37/14 A2996 RMK A01 T03730142  RH  025%=      5-min Rain = 0
KCO2 032258Z 16010KT 37/14 A2996 RMK A01 T03730139  RH  025%=      5-min Rain = 0
KCO2 032259Z 15008KT 37/14 A2996 RMK A01 T03710141  RH  025%=      5-min Rain = 0
KCO2 032300Z 13008KT 37/14 A2996 RMK A01 T03710138  RH  025%=      5-min Rain = 0
KCO2 032301Z 13007KT 37/14 A2996 RMK A01 T03700140  RH  026%=      5-min Rain = 0
KCO2 032302Z 14006KT 37/14 A2996 RMK A01 T03700142  RH  026%=      5-min Rain = 0
KCO2 032303Z 19008KT 37/14 A2996 RMK A01 T03710140  RH  025%=      5-min Rain = 0
KCO2 032304Z 17007KT 37/14 A2996 RMK A01 T03720139  RH  025%=      5-min Rain = 0
KCO2 032305Z 16006KT 37/14 A2996 RMK A01 T03710138  RH  025%=      5-min Rain = 0
KCO2 032306Z 15008KT 37/14 A2996 RMK A01 T03710140  RH  025%=      5-min Rain = 0
KCO2 032307Z 17007KT 37/14 A2996 RMK A01 T03710138  RH  025%=      5-min Rain = 0
KCO2 032308Z 15008KT 37/14 A2996 RMK A01 T03710142  RH  026%=      5-min Rain = 0
KCO2 032309Z 13008KT 37/14 A2996 RMK A01 T03710141  RH  025%=      5-min Rain = 0
KCO2 032310Z 15010KT 37/14 A2996 RMK A01 T03710141  RH  025%=      5-min Rain = 0
KCO2 032311Z 14008KT 37/14 A2996 RMK A01 T03710139  RH  025%=      5-min Rain = 0
KCO2 032312Z 14010KT 37/14 A2996 RMK A01 T03690138  RH  025%=      5-min Rain = 0
KCO2 032313Z 15008KT 37/14 A2996 RMK A01 T03670137  RH  025%=      5-min Rain = 0
KCO2 032314Z 14007KT 37/14 A2996 RMK A01 T03670139  RH  026%=      5-min Rain = 0
KCO2 032315Z 14008G13KT 37/14 A2996 RMK A01 T03680140  RH  026%=      5-min Rain = 0
KCO2 032316Z 16008KT 37/14 A2996 RMK A01 T03690137  RH  025%=      5-min Rain = 0
KCO2 032317Z 16007KT 37/14 A2996 RMK A01 T03690136  RH  025%=      5-min Rain = 0
KCO2 032318Z 14006KT 37/14 A2996 RMK A01 T03670135  RH  025%=      5-min Rain = 0
KCO2 032319Z 13006KT 37/14 A2996 RMK A01 T03670137  RH  025%=      5-min Rain = 0
KCO2 032320Z 12006KT 37/14 A2996 RMK A01 T03670138  RH  026%=      5-min Rain = 0
KCO2 032321Z 12007KT 37/14 A2996 RMK A01 T03680138  RH  025%=      5-min Rain = 0
KCO2 032322Z 13007KT 37/14 A2996 RMK A01 T03680137  RH  025%=      5-min Rain = 0
KCO2 032323Z 14006KT 37/14 A2996 RMK A01 T03680137  RH  025%=      5-min Rain = 0
KCO2 032324Z 13005KT 37/14 A2996 RMK A01 T03660140  RH  026%=      5-min Rain = 0
KCO2 032325Z 12006KT 37/14 A2996 RMK A01 T03670140  RH  026%=      5-min Rain = 0
KCO2 032326Z 15008KT 37/14 A2996 RMK A01 T03680142  RH  026%=      5-min Rain = 0
KCO2 032327Z 18009KT 37/14 A2996 RMK A01 T03690144  RH  026%=      5-min Rain = 0
KCO2 032328Z 17009KT 37/14 A2996 RMK A01 T03700144  RH  026%=      5-min Rain = 0
KCO2 032329Z 17010KT 37/14 A2996 RMK A01 T03700141  RH  026%=      5-min Rain = 0
KCO2 032330Z 17008KT 37/14 A2996 RMK A01 T03680141  RH  026%=      5-min Rain = 0
KCO2 032331Z 18007KT 37/14 A2996 RMK A01 T03670140  RH  026%=      5-min Rain = 0
KCO2 032332Z 17007KT 37/14 A2996 RMK A01 T03660140  RH  026%=      5-min Rain = 0
KCO2 032333Z 15008KT 37/14 A2996 RMK A01 T03660142  RH  026%=      5-min Rain = 0
KCO2 032334Z 16009KT 37/14 A2996 RMK A01 T03670141  RH  026%=      5-min Rain = 0
KCO2 032335Z 16008KT 37/14 A2996 RMK A01 T03670142  RH  026%=      5-min Rain = 0
KCO2 032336Z 16010KT 37/14 A2996 RMK A01 T03670141  RH  026%=      5-min Rain = 0
KCO2 032337Z 16008KT 37/14 A2996 RMK A01 T03660142  RH  026%=      5-min Rain = 0
KCO2 032338Z 15005KT 37/14 A2996 RMK A01 T03660141  RH  026%=      5-min Rain = 0
KCO2 032339Z 14008KT 37/14 A2996 RMK A01 T03650144  RH  027%=      5-min Rain = 0
KCO2 032340Z 14008KT 37/15 A2995 RMK A01 T03650146  RH  027%=      5-min Rain = 0
KCO2 032341Z 14007KT 37/15 A2996 RMK A01 T03670147  RH  027%=      5-min Rain = 0
KCO2 032342Z 14009KT 37/14 A2995 RMK A01 T03690144  RH  026%=      5-min Rain = 0
KCO2 032343Z 15010KT 37/14 A2995 RMK A01 T03680141  RH  026%=      5-min Rain = 0
KCO2 032344Z 15009KT 37/14 A2995 RMK A01 T03660142  RH  026%=      5-min Rain = 0
KCO2 032345Z 15008KT 37/14 A2995 RMK A01 T03650141  RH  026%=      5-min Rain = 0
KCO2 032346Z 15007KT 36/14 A2995 RMK A01 T03640142  RH  027%=      5-min Rain = 0
KCO2 032347Z 15005KT 36/14 A2995 RMK A01 T03640143  RH  027%=      5-min Rain = 0
KCO2 032348Z 15008G15KT 36/14 A2995 RMK A01 T03640143  RH  027%=      5-min Rain = 0
KCO2 032349Z 14012KT 36/14 A2995 RMK A01 T03640143  RH  027%=      5-min Rain = 0
KCO2 032350Z 14011KT 36/14 A2995 RMK A01 T03630143  RH  027%=      5-min Rain = 0
KCO2 032351Z 15010KT 36/14 A2995 RMK A01 T03630142  RH  027%=      5-min Rain = 0
KCO2 032352Z 15011KT 36/14 A2995 RMK A01 T03630143  RH  027%=      5-min Rain = 0
KCO2 032353Z 14010KT 36/14 A2996 RMK A01 T03640140  RH  026%=      5-min Rain = 0
KCO2 032354Z 14008KT 36/14 A2996 RMK A01 T03630140  RH  026%=      5-min Rain = 0
KCO2 032355Z 14007KT 36/14 A2996 RMK A01 T03620140  RH  027%=      5-min Rain = 0
KCO2 032356Z 14008KT 36/14 A2996 RMK A01 T03620144  RH  027%=      5-min Rain = 0
KCO2 032357Z 13009KT 36/14 A2996 RMK A01 T03620141  RH  027%=      5-min Rain = 0
KCO2 032358Z 13008KT 36/14 A2995 RMK A01 T03620143  RH  027%=      5-min Rain = 0
KCO2 032359Z 13009KT 36/14 A2995 RMK A01 T03620142  RH  027%=      5-min Rain = 0
KCO2 040000Z 14008KT 36/14 A2995 RMK A01 T03620140  RH  027%=      5-min Rain = 0
KCO2 040001Z 14007KT 36/14 A2995 RMK A01 T03610144  RH  027%=      5-min Rain = 0
KCO2 040002Z 14009KT 36/14 A2995 RMK A01 T03610143  RH  027%=      5-min Rain = 0
KCO2 040003Z 12010KT 36/14 A2996 RMK A01 T03610143  RH  027%=      5-min Rain = 0
KCO2 040004Z 12010KT 36/14 A2996 RMK A01 T03610142  RH  027%=      5-min Rain = 0
KCO2 040005Z 14008KT 36/14 A2996 RMK A01 T03610140  RH  027%=      5-min Rain = 0
KCO2 040006Z 15007KT 36/14 A2995 RMK A01 T03610138  RH  026%=      5-min Rain = 0
KCO2 040007Z 14006KT 36/14 A2995 RMK A01 T03600137  RH  026%=      5-min Rain = 0
KCO2 040008Z 15006KT 36/14 A2996 RMK A01 T03600139  RH  027%=      5-min Rain = 0
KCO2 040009Z 16006KT 36/14 A2995 RMK A01 T03600141  RH  027%=      5-min Rain = 0
KCO2 040010Z 14007KT 36/14 A2996 RMK A01 T03610142  RH  027%=      5-min Rain = 0
KCO2 040011Z 13009KT 36/14 A2996 RMK A01 T03610142  RH  027%=      5-min Rain = 0
KCO2 040012Z 13008KT 36/14 A2996 RMK A01 T03610140  RH  027%=      5-min Rain = 0
KCO2 040013Z 15006KT 36/14 A2996 RMK A01 T03610141  RH  027%=      5-min Rain = 0
KCO2 040014Z 14008KT 36/14 A2996 RMK A01 T03620143  RH  027%=      5-min Rain = 0
KCO2 040015Z 15012KT 36/14 A2996 RMK A01 T03610139  RH  027%=      5-min Rain = 0
KCO2 040016Z 14012KT 36/14 A2996 RMK A01 T03610137  RH  026%=      5-min Rain = 0
KCO2 040017Z 14012KT 36/14 A2996 RMK A01 T03600135  RH  026%=      5-min Rain = 0
KCO2 040018Z 14010KT 36/13 A2996 RMK A01 T03590134  RH  026%=      5-min Rain = 0
KCO2 040019Z 14009KT 36/14 A2996 RMK A01 T03580136  RH  027%=      5-min Rain = 0
KCO2 040020Z 14008KT 36/14 A2996 RMK A01 T03570138  RH  027%=      5-min Rain = 0
KCO2 040021Z 15011KT 36/14 A2996 RMK A01 T03580135  RH  026%=      5-min Rain = 0
KCO2 040022Z 14012KT 36/13 A2996 RMK A01 T03580133  RH  026%=      5-min Rain = 0
KCO2 040023Z 13010KT 36/13 A2996 RMK A01 T03570133  RH  026%=      5-min Rain = 0
KCO2 040024Z 13011KT 36/13 A2996 RMK A01 T03570133  RH  026%=      5-min Rain = 0
KCO2 040025Z 13008KT 36/13 A2996 RMK A01 T03570134  RH  026%=      5-min Rain = 0
KCO2 040026Z 15009KT 36/14 A2996 RMK A01 T03570136  RH  027%=      5-min Rain = 0
KCO2 040027Z 16009KT 36/13 A2996 RMK A01 T03560133  RH  026%=      5-min Rain = 0
KCO2 040028Z 13009KT 36/13 A2996 RMK A01 T03570133  RH  026%=      5-min Rain = 0
KCO2 040029Z 15009KT 36/13 A2996 RMK A01 T03570133  RH  026%=      5-min Rain = 0
KCO2 040030Z 13007KT 36/13 A2996 RMK A01 T03560133  RH  026%=      5-min Rain = 0
KCO2 040031Z 13009KT 36/13 A2996 RMK A01 T03560133  RH  026%=      5-min Rain = 0
KCO2 040032Z 14008KT 36/13 A2996 RMK A01 T03550133  RH  026%=      5-min Rain = 0
KCO2 040033Z 15008KT 36/13 A2996 RMK A01 T03550133  RH  026%=      5-min Rain = 0
KCO2 040034Z 14009KT 35/13 A2996 RMK A01 T03540133  RH  026%=      5-min Rain = 0
KCO2 040035Z 14011KT 35/13 A2996 RMK A01 T03540132  RH  026%=      5-min Rain = 0
KCO2 040036Z 13010KT 35/13 A2996 RMK A01 T03530130  RH  026%=      5-min Rain = 0
KCO2 040037Z 14011KT 35/13 A2996 RMK A01 T03530129  RH  026%=      5-min Rain = 0
KCO2 040038Z 15010KT 35/13 A2996 RMK A01 T03520127  RH  026%=      5-min Rain = 0
KCO2 040039Z 14009KT 35/13 A2996 RMK A01 T03510129  RH  026%=      5-min Rain = 0
KCO2 040040Z 13011KT 35/13 A2996 RMK A01 T03490128  RH  026%=      5-min Rain = 0
KCO2 040041Z 14010KT 35/12 A2996 RMK A01 T03490124  RH  026%=      5-min Rain = 0
KCO2 040042Z 13009KT 35/13 A2996 RMK A01 T03480126  RH  026%=      5-min Rain = 0
KCO2 040043Z 13009KT 35/13 A2996 RMK A01 T03470125  RH  026%=      5-min Rain = 0
KCO2 040044Z 13007KT 35/13 A2996 RMK A01 T03460125  RH  026%=      5-min Rain = 0
KCO2 040045Z 13008KT 35/13 A2996 RMK A01 T03460125  RH  026%=      5-min Rain = 0
KCO2 040046Z 13009KT 35/13 A2996 RMK A01 T03450125  RH  026%=      5-min Rain = 0
KCO2 040047Z 13009KT 35/13 A2996 RMK A01 T03450126  RH  027%=      5-min Rain = 0
KCO2 040048Z 14008KT 34/13 A2996 RMK A01 T03440127  RH  027%=      5-min Rain = 0
KCO2 040049Z 14008KT 34/13 A2996 RMK A01 T03440128  RH  027%=      5-min Rain = 0
KCO2 040050Z 15006KT 34/13 A2996 RMK A01 T03440130  RH  027%=      5-min Rain = 0
KCO2 040051Z 14007KT 34/13 A2996 RMK A01 T03430130  RH  028%=      5-min Rain = 0
KCO2 040052Z 14007KT 34/13 A2996 RMK A01 T03420130  RH  028%=      5-min Rain = 0
KCO2 040053Z 14007KT 34/13 A2996 RMK A01 T03420131  RH  028%=      5-min Rain = 0
KCO2 040054Z 14007KT 34/13 A2996 RMK A01 T03410131  RH  028%=      5-min Rain = 0
KCO2 040055Z 14007KT 34/13 A2996 RMK A01 T03400131  RH  028%=      5-min Rain = 0
KCO2 040056Z 14006KT 34/13 A2996 RMK A01 T03400131  RH  028%=      5-min Rain = 0
KCO2 040057Z 14008KT 34/13 A2996 RMK A01 T03400130  RH  028%=      5-min Rain = 0
KCO2 040058Z 14007KT 34/13 A2996 RMK A01 T03400129  RH  028%=      5-min Rain = 0
KCO2 040059Z 14007KT 34/13 A2996 RMK A01 T03410129  RH  028%=      5-min Rain = 0
KCO2 040100Z 14007KT 34/13 A2996 RMK A01 T03400129  RH  028%=      5-min Rain = 0
KCO2 040101Z 14010KT 34/13 A2996 RMK A01 T03400127  RH  027%=      5-min Rain = 0
KCO2 040102Z 15008KT 34/13 A2996 RMK A01 T03410126  RH  027%=      5-min Rain = 0
KCO2 040103Z 15006KT 34/13 A2996 RMK A01 T03420128  RH  027%=      5-min Rain = 0
KCO2 040104Z 15006KT 34/13 A2996 RMK A01 T03420129  RH  028%=      5-min Rain = 0
KCO2 040105Z 15007KT 34/13 A2997 RMK A01 T03420129  RH  028%=      5-min Rain = 0
KCO2 040106Z 15006KT 34/13 A2997 RMK A01 T03420130  RH  028%=      5-min Rain = 0
KCO2 040107Z 14007KT 34/13 A2997 RMK A01 T03420130  RH  028%=      5-min Rain = 0
KCO2 040108Z 14006KT 34/13 A2997 RMK A01 T03420132  RH  028%=      5-min Rain = 0
KCO2 040109Z 14006KT 34/13 A2997 RMK A01 T03410132  RH  028%=      5-min Rain = 0
KCO2 040110Z 14006KT 34/13 A2997 RMK A01 T03400131  RH  028%=      5-min Rain = 0
KCO2 040111Z 14006KT 34/13 A2997 RMK A01 T03400133  RH  029%=      5-min Rain = 0
KCO2 040112Z 14006KT 34/14 A2997 RMK A01 T03400135  RH  029%=      5-min Rain = 0
KCO2 040113Z 13006KT 34/13 A2997 RMK A01 T03390134  RH  029%=      5-min Rain = 0
KCO2 040114Z 14005KT 34/14 A2997 RMK A01 T03380135  RH  029%=      5-min Rain = 0
KCO2 040115Z 14005KT 34/14 A2997 RMK A01 T03370137  RH  030%=      5-min Rain = 0
KCO2 040116Z 13006KT 34/14 A2997 RMK A01 T03350135  RH  030%=      5-min Rain = 0
KCO2 040117Z 13005KT 33/14 A2997 RMK A01 T03340136  RH  030%=      5-min Rain = 0
KCO2 040118Z 12005KT 33/14 A2997 RMK A01 T03330137  RH  031%=      5-min Rain = 0
KCO2 040119Z 12004KT 33/14 A2997 RMK A01 T03320138  RH  031%=      5-min Rain = 0
KCO2 040120Z 13005KT 33/14 A2997 RMK A01 T03300140  RH  032%=      5-min Rain = 0
KCO2 040121Z 13005KT 33/14 A2997 RMK A01 T03290140  RH  032%=      5-min Rain = 0
KCO2 040122Z 13005KT 33/14 A2997 RMK A01 T03280139  RH  032%=      5-min Rain = 0
KCO2 040123Z 13006KT 33/14 A2997 RMK A01 T03270137  RH  032%=      5-min Rain = 0
KCO2 040124Z 13005KT 33/13 A2997 RMK A01 T03270134  RH  031%=      5-min Rain = 0
KCO2 040125Z 12005KT 33/13 A2997 RMK A01 T03260134  RH  031%=      5-min Rain = 0
KCO2 040126Z 13005KT 33/13 A2997 RMK A01 T03260134  RH  031%=      5-min Rain = 0
KCO2 040127Z 13005KT 33/13 A2997 RMK A01 T03250133  RH  031%=      5-min Rain = 0
KCO2 040128Z 13005KT 33/13 A2997 RMK A01 T03250133  RH  031%=      5-min Rain = 0
KCO2 040129Z 12005KT 32/13 A2997 RMK A01 T03240132  RH  031%=      5-min Rain = 0
KCO2 040130Z 13005KT 32/13 A2997 RMK A01 T03230132  RH  031%=      5-min Rain = 0
KCO2 040131Z 13006KT 32/13 A2997 RMK A01 T03230132  RH  031%=      5-min Rain = 0
KCO2 040132Z 13006KT 32/13 A2997 RMK A01 T03210129  RH  031%=      5-min Rain = 0
KCO2 040133Z 13006KT 32/13 A2997 RMK A01 T03210127  RH  031%=      5-min Rain = 0
KCO2 040134Z 12005KT 32/13 A2997 RMK A01 T03210127  RH  031%=      5-min Rain = 0
KCO2 040135Z 13005KT 32/13 A2997 RMK A01 T03210128  RH  031%=      5-min Rain = 0
KCO2 040136Z 13005KT 32/13 A2997 RMK A01 T03200128  RH  031%=      5-min Rain = 0
KCO2 040137Z 13005KT 32/13 A2997 RMK A01 T03190127  RH  031%=      5-min Rain = 0
KCO2 040138Z 13005KT 32/13 A2997 RMK A01 T03190129  RH  031%=      5-min Rain = 0
KCO2 040139Z 13005KT 32/13 A2997 RMK A01 T03180130  RH  032%=      5-min Rain = 0
KCO2 040140Z 13006KT 32/13 A2997 RMK A01 T03160129  RH  032%=      5-min Rain = 0
KCO2 040141Z 13006KT 32/13 A2997 RMK A01 T03160129  RH  032%=      5-min Rain = 0
KCO2 040142Z 13006KT 31/13 A2997 RMK A01 T03140128  RH  032%=      5-min Rain = 0
KCO2 040143Z 13006KT 31/13 A2997 RMK A01 T03130128  RH  032%=      5-min Rain = 0
KCO2 040144Z 13006KT 31/13 A2997 RMK A01 T03120127  RH  032%=      5-min Rain = 0
KCO2 040145Z 12005KT 31/13 A2997 RMK A01 T03110127  RH  033%=      5-min Rain = 0
KCO2 040146Z 12005KT 31/13 A2997 RMK A01 T03100127  RH  033%=      5-min Rain = 0
KCO2 040147Z 12005KT 31/13 A2997 RMK A01 T03090127  RH  033%=      5-min Rain = 0
KCO2 040148Z 12005KT 31/13 A2997 RMK A01 T03090127  RH  033%=      5-min Rain = 0
KCO2 040149Z 12006KT 31/13 A2997 RMK A01 T03080128  RH  033%=      5-min Rain = 0
KCO2 040150Z 12006KT 31/13 A2997 RMK A01 T03070128  RH  033%=      5-min Rain = 0
KCO2 040151Z 12007KT 31/13 A2997 RMK A01 T03060128  RH  034%=      5-min Rain = 0
KCO2 040152Z 12006KT 31/13 A2997 RMK A01 T03050127  RH  034%=      5-min Rain = 0
KCO2 040153Z 12006KT 30/13 A2997 RMK A01 T03040127  RH  034%=      5-min Rain = 0
KCO2 040154Z 12006KT 30/13 A2997 RMK A01 T03040126  RH  034%=      5-min Rain = 0
KCO2 040155Z 12006KT 30/13 A2997 RMK A01 T03040126  RH  034%=      5-min Rain = 0
KCO2 040156Z 12007KT 30/13 A2997 RMK A01 T03030125  RH  034%=      5-min Rain = 0
KCO2 040157Z 12007KT 30/12 A2997 RMK A01 T03020124  RH  033%=      5-min Rain = 0
KCO2 040158Z 12006KT 30/12 A2997 RMK A01 T03020123  RH  033%=      5-min Rain = 0
KCO2 040159Z 13006KT 30/12 A2997 RMK A01 T03020123  RH  033%=      5-min Rain = 0
KCO2 040200Z 13006KT 30/12 A2997 RMK A01 T03020123  RH  033%=      5-min Rain = 0
KCO2 040201Z 13006KT 30/12 A2997 RMK A01 T03020123  RH  033%=      5-min Rain = 0
KCO2 040202Z 13006KT 30/12 A2997 RMK A01 T03010123  RH  033%=      5-min Rain = 0
KCO2 040203Z 13006KT 30/12 A2997 RMK A01 T03010123  RH  033%=      5-min Rain = 0
KCO2 040204Z 13006KT 30/12 A2997 RMK A01 T03000123  RH  034%=      5-min Rain = 0
KCO2 040205Z 13006KT 30/12 A2998 RMK A01 T02990123  RH  034%=      5-min Rain = 0
KCO2 040206Z 13006KT 30/12 A2998 RMK A01 T02980122  RH  034%=      5-min Rain = 0
KCO2 040207Z 13006KT 30/12 A2998 RMK A01 T02970122  RH  034%=      5-min Rain = 0
KCO2 040208Z 13006KT 30/12 A2998 RMK A01 T02970122  RH  034%=      5-min Rain = 0
KCO2 040209Z 13006KT 30/12 A2998 RMK A01 T02970122  RH  034%=      5-min Rain = 0
KCO2 040210Z 13006KT 30/12 A2998 RMK A01 T02960121  RH  034%=      5-min Rain = 0
KCO2 040211Z 13006KT 30/12 A2998 RMK A01 T02950121  RH  034%=      5-min Rain = 0
KCO2 040212Z 13006KT 29/12 A2998 RMK A01 T02940121  RH  034%=      5-min Rain = 0
KCO2 040213Z 13006KT 29/12 A2998 RMK A01 T02940121  RH  034%=      5-min Rain = 0
KCO2 040214Z 13006KT 29/12 A2998 RMK A01 T02930121  RH  035%=      5-min Rain = 0
KCO2 040215Z 12006KT 29/12 A2998 RMK A01 T02930121  RH  035%=      5-min Rain = 0
KCO2 040216Z 12006KT 29/12 A2998 RMK A01 T02920121  RH  035%=      5-min Rain = 0
KCO2 040217Z 12006KT 29/12 A2998 RMK A01 T02920120  RH  035%=      5-min Rain = 0
KCO2 040218Z 12006KT 29/12 A2998 RMK A01 T02910119  RH  034%=      5-min Rain = 0
KCO2 040219Z 11006KT 29/12 A2998 RMK A01 T02910120  RH  035%=      5-min Rain = 0
KCO2 040220Z 12006KT 29/12 A2998 RMK A01 T02900120  RH  035%=      5-min Rain = 0
KCO2 040221Z 12006KT 29/12 A2998 RMK A01 T02890120  RH  035%=      5-min Rain = 0
KCO2 040222Z 12006KT 29/12 A2998 RMK A01 T02880119  RH  035%=      5-min Rain = 0
KCO2 040223Z 13005KT 29/12 A2998 RMK A01 T02870119  RH  035%=      5-min Rain = 0
KCO2 040224Z 12005KT 29/12 A2998 RMK A01 T02870118  RH  035%=      5-min Rain = 0
KCO2 040225Z 12006KT 29/12 A2998 RMK A01 T02870118  RH  035%=      5-min Rain = 0
KCO2 040226Z 12005KT 29/12 A2998 RMK A01 T02860118  RH  035%=      5-min Rain = 0
KCO2 040227Z 12005KT 29/12 A2998 RMK A01 T02860118  RH  035%=      5-min Rain = 0
KCO2 040228Z 12005KT 29/12 A2998 RMK A01 T02860118  RH  035%=      5-min Rain = 0
KCO2 040229Z 13005KT 29/12 A2998 RMK A01 T02860118  RH  035%=      5-min Rain = 0
KCO2 040230Z 13005KT 29/12 A2998 RMK A01 T02860118  RH  035%=      5-min Rain = 0
KCO2 040231Z 13005KT 29/12 A2998 RMK A01 T02860118  RH  035%=      5-min Rain = 0
KCO2 040232Z 12005KT 29/12 A2998 RMK A01 T02860118  RH  035%=      5-min Rain = 0
KCO2 040233Z 12005KT 29/12 A2998 RMK A01 T02860120  RH  036%=      5-min Rain = 0
KCO2 040234Z 12005KT 29/12 A2998 RMK A01 T02850120  RH  036%=      5-min Rain = 0
KCO2 040235Z 12005KT 28/12 A2998 RMK A01 T02840121  RH  036%=      5-min Rain = 0
KCO2 040236Z 12005KT 28/12 A2998 RMK A01 T02840121  RH  036%=      5-min Rain = 0
KCO2 040237Z 12005KT 28/12 A2998 RMK A01 T02840122  RH  037%=      5-min Rain = 0
KCO2 040238Z 12005KT 28/12 A2998 RMK A01 T02840122  RH  037%=      5-min Rain = 0
KCO2 040239Z 12005KT 28/12 A2998 RMK A01 T02830122  RH  037%=      5-min Rain = 0
KCO2 040240Z 12006KT 28/12 A2998 RMK A01 T02820122  RH  037%=      5-min Rain = 0
KCO2 040241Z 12005KT 28/12 A2998 RMK A01 T02830121  RH  037%=      5-min Rain = 0
KCO2 040242Z 12005KT 28/12 A2998 RMK A01 T02830121  RH  037%=      5-min Rain = 0
KCO2 040243Z 12005KT 28/12 A2998 RMK A01 T02830121  RH  037%=      5-min Rain = 0
KCO2 040244Z 11006KT 28/12 A2998 RMK A01 T02830121  RH  037%=      5-min Rain = 0
KCO2 040245Z 11006KT 28/12 A2999 RMK A01 T02830121  RH  036%=      5-min Rain = 0
KCO2 040246Z 11006KT 28/12 A2999 RMK A01 T02840121  RH  036%=      5-min Rain = 0
KCO2 040247Z 11006KT 28/12 A2999 RMK A01 T02840121  RH  036%=      5-min Rain = 0
KCO2 040248Z 11005KT 29/12 A2999 RMK A01 T02850120  RH  036%=      5-min Rain = 0
KCO2 040249Z 11005KT 29/12 A2999 RMK A01 T02850121  RH  036%=      5-min Rain = 0
KCO2 040250Z 11005KT 29/12 A2999 RMK A01 T02850122  RH  036%=      5-min Rain = 0
KCO2 040251Z 11006KT 29/12 A2999 RMK A01 T02850122  RH  036%=      5-min Rain = 0
KCO2 040252Z 11006KT 28/12 A2999 RMK A01 T02840122  RH  037%=      5-min Rain = 0
KCO2 040253Z 12006KT 28/12 A2999 RMK A01 T02830122  RH  037%=      5-min Rain = 0
KCO2 040254Z 12006KT 28/12 A2999 RMK A01 T02820123  RH  037%=      5-min Rain = 0
KCO2 040255Z 12006KT 28/12 A2999 RMK A01 T02810123  RH  038%=      5-min Rain = 0
KCO2 040256Z 12006KT 28/12 A2999 RMK A01 T02790123  RH  038%=      5-min Rain = 0
KCO2 040257Z 11006KT 28/12 A2999 RMK A01 T02780122  RH  038%=      5-min Rain = 0
KCO2 040258Z 11007KT 28/12 A2999 RMK A01 T02780121  RH  038%=      5-min Rain = 0
KCO2 040259Z 11006KT 28/12 A2999 RMK A01 T02780121  RH  038%=      5-min Rain = 0
KCO2 040300Z 11006KT 28/12 A2999 RMK A01 T02780120  RH  038%=      5-min Rain = 0
KCO2 040301Z 11006KT 28/12 A30 RMK A01 T02780120  RH  037%=      5-min Rain = 0
KCO2 040302Z 11006KT 28/12 A30 RMK A01 T02780119  RH  037%=      5-min Rain = 0
KCO2 040303Z 11006KT 28/12 A30 RMK A01 T02780120  RH  037%=      5-min Rain = 0
KCO2 040304Z 11005KT 28/12 A30 RMK A01 T02780119  RH  037%=      5-min Rain = 0
KCO2 040305Z 11005KT 28/12 A30 RMK A01 T02790119  RH  037%=      5-min Rain = 0
KCO2 040306Z 11005KT 28/12 A30 RMK A01 T02790119  RH  037%=      5-min Rain = 0
KCO2 040307Z 11005KT 28/12 A30 RMK A01 T02790119  RH  037%=      5-min Rain = 0
KCO2 040308Z 11005KT 28/12 A30 RMK A01 T02800120  RH  037%=      5-min Rain = 0
KCO2 040309Z 10005KT 28/12 A30 RMK A01 T02790120  RH  037%=      5-min Rain = 0
KCO2 040310Z 11005KT 28/12 A30 RMK A01 T02790119  RH  037%=      5-min Rain = 0
KCO2 040311Z 10006KT 28/12 A30 RMK A01 T02790118  RH  037%=      5-min Rain = 0
KCO2 040312Z 11005KT 28/12 A3001 RMK A01 T02790117  RH  037%=      5-min Rain = 0
KCO2 040313Z 10005KT 28/12 A3001 RMK A01 T02790117  RH  037%=      5-min Rain = 0
KCO2 040314Z 11005KT 28/12 A3001 RMK A01 T02780116  RH  036%=      5-min Rain = 0
KCO2 040315Z 11006KT 28/12 A3001 RMK A01 T02790115  RH  036%=      5-min Rain = 0
KCO2 040316Z 10005KT 28/11 A3001 RMK A01 T02790114  RH  036%=      5-min Rain = 0
KCO2 040317Z 10005KT 28/12 A3001 RMK A01 T02790116  RH  036%=      5-min Rain = 0
KCO2 040318Z 10005KT 28/12 A3001 RMK A01 T02790116  RH  036%=      5-min Rain = 0
KCO2 040319Z 10005KT 28/12 A3001 RMK A01 T02790116  RH  036%=      5-min Rain = 0
KCO2 040320Z 10005KT 28/12 A3001 RMK A01 T02790116  RH  036%=      5-min Rain = 0
KCO2 040321Z 10004KT 28/12 A3001 RMK A01 T02790116  RH  036%=      5-min Rain = 0
KCO2 040322Z 09004KT 28/12 A3001 RMK A01 T02790117  RH  037%=      5-min Rain = 0
KCO2 040323Z 09004KT 28/12 A3001 RMK A01 T02790118  RH  037%=      5-min Rain = 0
KCO2 040324Z 09004KT 28/12 A3001 RMK A01 T02800118  RH  037%=      5-min Rain = 0
KCO2 040325Z 09003KT 28/12 A3001 RMK A01 T02800119  RH  037%=      5-min Rain = 0
KCO2 040326Z 10003KT 28/12 A3002 RMK A01 T02790119  RH  037%=      5-min Rain = 0
KCO2 040327Z 10003KT 28/12 A3002 RMK A01 T02780118  RH  037%=      5-min Rain = 0
KCO2 040328Z 10003KT 28/12 A3002 RMK A01 T02780115  RH  036%=      5-min Rain = 0
KCO2 040329Z 10004KT 28/12 A3002 RMK A01 T02780115  RH  036%=      5-min Rain = 0
KCO2 040330Z 11004KT 28/12 A3002 RMK A01 T02780115  RH  036%=      5-min Rain = 0
KCO2 040331Z 11004KT 28/12 A3002 RMK A01 T02770115  RH  036%=      5-min Rain = 0
KCO2 040332Z 11004KT 28/12 A3002 RMK A01 T02760115  RH  037%=      5-min Rain = 0
KCO2 040333Z 12005KT 28/12 A3002 RMK A01 T02750116  RH  037%=      5-min Rain = 0
KCO2 040334Z 12005KT 27/12 A3002 RMK A01 T02740115  RH  037%=      5-min Rain = 0
KCO2 040335Z 11005KT 27/11 A3002 RMK A01 T02730114  RH  037%=      5-min Rain = 0
KCO2 040336Z 11005KT 27/12 A3002 RMK A01 T02730116  RH  038%=      5-min Rain = 0
KCO2 040337Z 11006KT 27/12 A3002 RMK A01 T02720117  RH  038%=      5-min Rain = 0
KCO2 040338Z 11006KT 27/12 A3002 RMK A01 T02700116  RH  038%=      5-min Rain = 0
KCO2 040339Z 11006KT 27/12 A3002 RMK A01 T02700115  RH  038%=      5-min Rain = 0
KCO2 040340Z 11006KT 27/11 A3002 RMK A01 T02700114  RH  038%=      5-min Rain = 0
KCO2 040341Z 11006KT 27/12 A3002 RMK A01 T02700115  RH  038%=      5-min Rain = 0
KCO2 040342Z 11006KT 27/12 A3002 RMK A01 T02710115  RH  038%=      5-min Rain = 0
KCO2 040343Z 11006KT 27/12 A3002 RMK A01 T02710116  RH  038%=      5-min Rain = 0
KCO2 040344Z 11006KT 27/12 A3002 RMK A01 T02710116  RH  038%=      5-min Rain = 0
KCO2 040345Z 11006KT 27/12 A3002 RMK A01 T02700117  RH  038%=      5-min Rain = 0
KCO2 040346Z 11006KT 27/12 A3002 RMK A01 T02690116  RH  038%=      5-min Rain = 0
KCO2 040347Z 11006KT 27/12 A3002 RMK A01 T02690116  RH  038%=      5-min Rain = 0
KCO2 040348Z 11006KT 27/12 A3002 RMK A01 T02690115  RH  038%=      5-min Rain = 0
KCO2 040349Z 11006KT 27/12 A3002 RMK A01 T02690116  RH  038%=      5-min Rain = 0
KCO2 040350Z 11006KT 27/12 A3002 RMK A01 T02680116  RH  039%=      5-min Rain = 0
KCO2 040351Z 11006KT 27/12 A3002 RMK A01 T02680116  RH  039%=      5-min Rain = 0
KCO2 040352Z 11006KT 27/12 A3002 RMK A01 T02670116  RH  039%=      5-min Rain = 0
KCO2 040353Z 11006KT 27/12 A3002 RMK A01 T02670115  RH  039%=      5-min Rain = 0
KCO2 040354Z 11006KT 27/12 A3002 RMK A01 T02670116  RH  039%=      5-min Rain = 0
KCO2 040355Z 11006KT 27/12 A3002 RMK A01 T02670116  RH  039%=      5-min Rain = 0
KCO2 040356Z 10006KT 27/12 A3002 RMK A01 T02670115  RH  039%=      5-min Rain = 0
KCO2 040357Z 11006KT 27/12 A3002 RMK A01 T02670116  RH  039%=      5-min Rain = 0
KCO2 040358Z 11006KT 27/12 A3002 RMK A01 T02670115  RH  039%=      5-min Rain = 0
KCO2 040359Z 10006KT 27/11 A3002 RMK A01 T02670114  RH  039%=      5-min Rain = 0
KCO2 040400Z 09006KT 27/12 A3002 RMK A01 T02670115  RH  039%=      5-min Rain = 0
KCO2 040401Z 09005KT 27/12 A3002 RMK A01 T02670117  RH  039%=      5-min Rain = 0
KCO2 040402Z 09005KT 27/12 A3002 RMK A01 T02660118  RH  040%=      5-min Rain = 0
KCO2 040403Z 09005KT 27/12 A3002 RMK A01 T02650118  RH  040%=      5-min Rain = 0
KCO2 040404Z 09005KT 26/12 A3002 RMK A01 T02640118  RH  040%=      5-min Rain = 0
KCO2 040405Z 09005KT 26/12 A3002 RMK A01 T02630117  RH  040%=      5-min Rain = 0
KCO2 040406Z 09005KT 26/12 A3002 RMK A01 T02630116  RH  040%=      5-min Rain = 0
KCO2 040407Z 08006KT 26/12 A3003 RMK A01 T02630115  RH  040%=      5-min Rain = 0
KCO2 040408Z 08006KT 26/12 A3003 RMK A01 T02640116  RH  040%=      5-min Rain = 0
KCO2 040409Z 08005KT 26/12 A3003 RMK A01 T02630116  RH  040%=      5-min Rain = 0
KCO2 040410Z 08005KT 26/12 A3003 RMK A01 T02620116  RH  040%=      5-min Rain = 0
KCO2 040411Z 08006KT 26/12 A3003 RMK A01 T02610115  RH  040%=      5-min Rain = 0
KCO2 040412Z 08005KT 26/12 A3003 RMK A01 T02610115  RH  040%=      5-min Rain = 0
KCO2 040413Z 09005KT 26/11 A3003 RMK A01 T02610113  RH  040%=      5-min Rain = 0
KCO2 040414Z 09006KT 26/11 A3003 RMK A01 T02610113  RH  040%=      5-min Rain = 0
KCO2 040415Z 09007KT 26/11 A3003 RMK A01 T02610114  RH  040%=      5-min Rain = 0
KCO2 040416Z 09006KT 26/11 A3003 RMK A01 T02610114  RH  040%=      5-min Rain = 0
KCO2 040417Z 10006KT 26/11 A3003 RMK A01 T02610112  RH  039%=      5-min Rain = 0
KCO2 040418Z 09006KT 26/11 A3003 RMK A01 T02620111  RH  039%=      5-min Rain = 0
KCO2 040419Z 10005KT 26/11 A3003 RMK A01 T02630111  RH  039%=      5-min Rain = 0
KCO2 040420Z 10005KT 26/11 A3003 RMK A01 T02640110  RH  038%=      5-min Rain = 0
KCO2 040421Z 10006KT 26/11 A3003 RMK A01 T02640110  RH  038%=      5-min Rain = 0
KCO2 040422Z 10006KT 27/11 A3003 RMK A01 T02650111  RH  038%=      5-min Rain = 0
KCO2 040423Z 10007KT 26/11 A3003 RMK A01 T02640110  RH  038%=      5-min Rain = 0
KCO2 040424Z 10007KT 26/11 A3003 RMK A01 T02640110  RH  038%=      5-min Rain = 0
KCO2 040425Z 10007KT 26/11 A3003 RMK A01 T02630110  RH  038%=      5-min Rain = 0
KCO2 040426Z 10007KT 26/11 A3003 RMK A01 T02620110  RH  038%=      5-min Rain = 0
KCO2 040427Z 10006KT 26/11 A3003 RMK A01 T02620110  RH  039%=      5-min Rain = 0
KCO2 040428Z 10006KT 26/11 A3002 RMK A01 T02620110  RH  039%=      5-min Rain = 0
KCO2 040429Z 10006KT 26/11 A3003 RMK A01 T02620111  RH  039%=      5-min Rain = 0
KCO2 040430Z 10006KT 26/11 A3003 RMK A01 T02610112  RH  039%=      5-min Rain = 0
KCO2 040431Z 10006KT 26/11 A3003 RMK A01 T02600111  RH  039%=      5-min Rain = 0
KCO2 040432Z 10005KT 26/11 A3003 RMK A01 T02590111  RH  039%=      5-min Rain = 0
KCO2 040433Z 10005KT 26/11 A3003 RMK A01 T02580111  RH  040%=      5-min Rain = 0
KCO2 040434Z 10005KT 26/11 A3002 RMK A01 T02580112  RH  040%=      5-min Rain = 0
KCO2 040435Z 10005KT 26/11 A3002 RMK A01 T02560112  RH  040%=      5-min Rain = 0
KCO2 040436Z 10005KT 26/11 A3002 RMK A01 T02550111  RH  040%=      5-min Rain = 0
KCO2 040437Z 10005KT 26/11 A3002 RMK A01 T02550111  RH  040%=      5-min Rain = 0
KCO2 040438Z 10005KT 26/11 A3002 RMK A01 T02550110  RH  040%=      5-min Rain = 0
KCO2 040439Z 10005KT 26/11 A3002 RMK A01 T02550110  RH  040%=      5-min Rain = 0
KCO2 040440Z 10005KT 26/11 A3002 RMK A01 T02560111  RH  040%=      5-min Rain = 0
KCO2 040441Z 10005KT 26/11 A3002 RMK A01 T02560112  RH  040%=      5-min Rain = 0
KCO2 040442Z 09005KT 26/11 A3002 RMK A01 T02550111  RH  041%=      5-min Rain = 0
KCO2 040443Z 09005KT 26/11 A3002 RMK A01 T02550112  RH  041%=      5-min Rain = 0
KCO2 040444Z 09005KT 26/11 A3002 RMK A01 T02550112  RH  041%=      5-min Rain = 0
KCO2 040445Z 09005KT 26/11 A3002 RMK A01 T02550113  RH  041%=      5-min Rain = 0
KCO2 040446Z 09005KT 25/11 A3003 RMK A01 T02540113  RH  041%=      5-min Rain = 0
KCO2 040447Z 09005KT 25/11 A3003 RMK A01 T02520113  RH  042%=      5-min Rain = 0
KCO2 040448Z 09005KT 25/11 A3003 RMK A01 T02520112  RH  042%=      5-min Rain = 0
KCO2 040449Z 09006KT 25/11 A3003 RMK A01 T02510112  RH  042%=      5-min Rain = 0
KCO2 040450Z 09006KT 25/11 A3003 RMK A01 T02510111  RH  041%=      5-min Rain = 0
KCO2 040451Z 09006KT 25/11 A3003 RMK A01 T02510110  RH  041%=      5-min Rain = 0
KCO2 040452Z 09005KT 25/11 A3003 RMK A01 T02510110  RH  041%=      5-min Rain = 0
KCO2 040453Z 09005KT 25/11 A3003 RMK A01 T02510110  RH  041%=      5-min Rain = 0
KCO2 040454Z 09005KT 25/11 A3003 RMK A01 T02510109  RH  041%=      5-min Rain = 0
KCO2 040455Z 08005KT 25/11 A3003 RMK A01 T02510109  RH  041%=      5-min Rain = 0
KCO2 040456Z 08005KT 25/11 A3003 RMK A01 T02500108  RH  041%=      5-min Rain = 0
KCO2 040457Z 08005KT 25/11 A3003 RMK A01 T02500108  RH  041%=      5-min Rain = 0
KCO2 040458Z 09005KT 25/11 A3003 RMK A01 T02510108  RH  041%=      5-min Rain = 0
KCO2 040459Z 09005KT 25/11 A3003 RMK A01 T02510108  RH  040%=      5-min Rain = 0

Page generated in 0.12 seconds.